Observation data for Sterling City on 01/13/2021      Previous  Date  Next       Current Mesonet Observations  Soil Data  Daily Summary Page  Observations in Plain Language
KSC1 130600Z 31002KT M02/M03 A3026 RMK A01 T10171027  RH  093%=      5-min Rain = 0
KSC1 130601Z 31002KT M02/M03 A3026 RMK A01 T10191030  RH  092%=      5-min Rain = 0
KSC1 130602Z 31002KT M02/M03 A3026 RMK A01 T10201029  RH  093%=      5-min Rain = 0
KSC1 130603Z 31002KT M02/M03 A3026 RMK A01 T10201031  RH  093%=      5-min Rain = 0
KSC1 130604Z 31002KT M02/M03 A3026 RMK A01 T10221032  RH  093%=      5-min Rain = 0
KSC1 130605Z 31001KT M02/M03 A3026 RMK A01 T10201025  RH  096%=      5-min Rain = 0
KSC1 130606Z 31002KT M02/M02 A3025 RMK A01 T10171023  RH  095%=      5-min Rain = 0
KSC1 130607Z 30001KT M02/M03 A3025 RMK A01 T10171026  RH  094%=      5-min Rain = 0
KSC1 130608Z 31001KT M01/M02 A3025 RMK A01 T10141020  RH  096%=      5-min Rain = 0
KSC1 130609Z 32002KT M01/M02 A3025 RMK A01 T10101020  RH  093%=      5-min Rain = 0
KSC1 130610Z 30002KT M01/M03 A3025 RMK A01 T10101026  RH  089%=      5-min Rain = 0
KSC1 130611Z 31002KT M01/M03 A3025 RMK A01 T10111027  RH  089%=      5-min Rain = 0
KSC1 130612Z 32002KT M01/M03 A3025 RMK A01 T10121028  RH  089%=      5-min Rain = 0
KSC1 130613Z 32002KT M02/M04 A3025 RMK A01 T10151035  RH  087%=      5-min Rain = 0
KSC1 130614Z 33002KT M02/M04 A3025 RMK A01 T10201040  RH  086%=      5-min Rain = 0
KSC1 130615Z 33001KT M02/M04 A3025 RMK A01 T10231044  RH  086%=      5-min Rain = 0
KSC1 130616Z 33002KT M03/M04 A3025 RMK A01 T10261044  RH  087%=      5-min Rain = 0
KSC1 130617Z 33002KT M03/M05 A3025 RMK A01 T10281045  RH  088%=      5-min Rain = 0
KSC1 130618Z 34002KT M03/M05 A3025 RMK A01 T10311047  RH  089%=      5-min Rain = 0
KSC1 130619Z 33001KT M03/M05 A3025 RMK A01 T10321045  RH  091%=      5-min Rain = 0
KSC1 130620Z 35002KT M03/M04 A3025 RMK A01 T10321043  RH  093%=      5-min Rain = 0
KSC1 130621Z 00002KT M03/M04 A3025 RMK A01 T10341043  RH  093%=      5-min Rain = 0
KSC1 130622Z 01002KT M04/M04 A3025 RMK A01 T10351042  RH  095%=      5-min Rain = 0
KSC1 130623Z 01002KT M04/M04 A3025 RMK A01 T10351040  RH  096%=      5-min Rain = 0
KSC1 130624Z 01002KT M04/M04 A3025 RMK A01 T10351039  RH  098%=      5-min Rain = 0
KSC1 130625Z 02002KT M04/M04 A3025 RMK A01 T10351036  RH  099%=      5-min Rain = 0
KSC1 130626Z 02002KT M03/M03 A3025 RMK A01 T10341034  RH  100%=      5-min Rain = 0
KSC1 130627Z 00002KT M03/M03 A3025 RMK A01 T10341034  RH  100%=      5-min Rain = 0
KSC1 130628Z 35002KT M03/M03 A3025 RMK A01 T10341034  RH  100%=      5-min Rain = 0
KSC1 130629Z 35002KT M03/M03 A3025 RMK A01 T10341034  RH  100%=      5-min Rain = 0
KSC1 130630Z 35003KT M03/M03 A3025 RMK A01 T10341034  RH  100%=      5-min Rain = 0
KSC1 130631Z 35002KT M04/M04 A3025 RMK A01 T10351035  RH  100%=      5-min Rain = 0
KSC1 130632Z 35003KT M04/M04 A3025 RMK A01 T10351035  RH  100%=      5-min Rain = 0
KSC1 130633Z 34003KT M04/M04 A3025 RMK A01 T10351035  RH  100%=      5-min Rain = 0
KSC1 130634Z 34003KT M04/M04 A3025 RMK A01 T10361036  RH  100%=      5-min Rain = 0
KSC1 130635Z 34003KT M04/M04 A3025 RMK A01 T10361037  RH  100%=      5-min Rain = 0
KSC1 130636Z 32003KT M04/M04 A3025 RMK A01 T10371037  RH  100%=      5-min Rain = 0
KSC1 130637Z 32003KT M04/M04 A3025 RMK A01 T10381038  RH  100%=      5-min Rain = 0
KSC1 130638Z 33002KT M04/M04 A3025 RMK A01 T10371038  RH  100%=      5-min Rain = 0
KSC1 130639Z 32003KT M04/M04 A3025 RMK A01 T10381038  RH  100%=      5-min Rain = 0
KSC1 130640Z 31003KT M04/M04 A3025 RMK A01 T10381038  RH  100%=      5-min Rain = 0
KSC1 130641Z 31003KT M04/M04 A3025 RMK A01 T10381038  RH  100%=      5-min Rain = 0
KSC1 130642Z 32003KT M04/M04 A3025 RMK A01 T10371037  RH  100%=      5-min Rain = 0
KSC1 130643Z 32003KT M04/M04 A3025 RMK A01 T10361036  RH  100%=      5-min Rain = 0
KSC1 130644Z 33004KT M04/M04 A3025 RMK A01 T10361036  RH  100%=      5-min Rain = 0
KSC1 130645Z 33004KT M04/M04 A3025 RMK A01 T10371037  RH  100%=      5-min Rain = 0
KSC1 130646Z 34004KT M04/M04 A3025 RMK A01 T10381038  RH  100%=      5-min Rain = 0
KSC1 130647Z 32004KT M04/M04 A3024 RMK A01 T10381039  RH  100%=      5-min Rain = 0
KSC1 130648Z 33003KT M04/M04 A3024 RMK A01 T10371038  RH  100%=      5-min Rain = 0
KSC1 130649Z 31002KT M04/M04 A3024 RMK A01 T10361037  RH  100%=      5-min Rain = 0
KSC1 130650Z 32001KT M04/M04 A3024 RMK A01 T10361036  RH  100%=      5-min Rain = 0
KSC1 130651Z 31000KT M04/M04 A3024 RMK A01 T10351036  RH  100%=      5-min Rain = 0
KSC1 130652Z 00000KT M04/M04 A3024 RMK A01 T10351036  RH  100%=      5-min Rain = 0
KSC1 130653Z 00000KT M03/M03 A3024 RMK A01 T10341034  RH  100%=      5-min Rain = 0
KSC1 130654Z 31000KT M03/M03 A3024 RMK A01 T10301030  RH  100%=      5-min Rain = 0
KSC1 130655Z 34001KT M03/M03 A3024 RMK A01 T10301030  RH  100%=      5-min Rain = 0
KSC1 130656Z 08000KT M03/M03 A3024 RMK A01 T10301030  RH  100%=      5-min Rain = 0
KSC1 130657Z 00000KT M03/M03 A3024 RMK A01 T10301031  RH  100%=      5-min Rain = 0
KSC1 130658Z 00000KT M03/M03 A3024 RMK A01 T10321034  RH  099%=      5-min Rain = 0
KSC1 130659Z 08000KT M03/M03 A3024 RMK A01 T10331034  RH  099%=      5-min Rain = 0
KSC1 130700Z 08000KT M03/M03 A3024 RMK A01 T10321032  RH  099%=      5-min Rain = 0
KSC1 130701Z 08000KT M03/M04 A3024 RMK A01 T10321035  RH  098%=      5-min Rain = 0
KSC1 130702Z 04000KT M03/M04 A3024 RMK A01 T10331035  RH  098%=      5-min Rain = 0
KSC1 130703Z 04001KT M03/M04 A3024 RMK A01 T10331035  RH  098%=      5-min Rain = 0
KSC1 130704Z 25001KT M03/M03 A3024 RMK A01 T10311032  RH  100%=      5-min Rain = 0
KSC1 130705Z 24000KT M03/M03 A3024 RMK A01 T10291029  RH  100%=      5-min Rain = 0
KSC1 130706Z 30001KT M03/M03 A3024 RMK A01 T10271028  RH  100%=      5-min Rain = 0
KSC1 130707Z 32001KT M03/M03 A3024 RMK A01 T10271027  RH  100%=      5-min Rain = 0
KSC1 130708Z 33002KT M03/M03 A3024 RMK A01 T10251025  RH  100%=      5-min Rain = 0
KSC1 130709Z 31002KT M02/M02 A3024 RMK A01 T10231023  RH  100%=      5-min Rain = 0
KSC1 130710Z 30003KT M02/M02 A3024 RMK A01 T10211022  RH  100%=      5-min Rain = 0
KSC1 130711Z 30003KT M02/M03 A3024 RMK A01 T10201025  RH  097%=      5-min Rain = 0
KSC1 130712Z 31002KT M02/M02 A3024 RMK A01 T10181022  RH  097%=      5-min Rain = 0
KSC1 130713Z 30002KT M02/M02 A3023 RMK A01 T10161023  RH  095%=      5-min Rain = 0
KSC1 130714Z 30002KT M02/M03 A3023 RMK A01 T10161027  RH  092%=      5-min Rain = 0
KSC1 130715Z 26001KT M02/M03 A3023 RMK A01 T10181032  RH  090%=      5-min Rain = 0
KSC1 130716Z 26001KT M02/M03 A3023 RMK A01 T10191033  RH  090%=      5-min Rain = 0
KSC1 130717Z 23001KT M02/M04 A3023 RMK A01 T10221038  RH  089%=      5-min Rain = 0
KSC1 130718Z 22000KT M02/M04 A3023 RMK A01 T10241040  RH  089%=      5-min Rain = 0
KSC1 130719Z 00000KT M03/M04 A3023 RMK A01 T10261040  RH  090%=      5-min Rain = 0
KSC1 130720Z 00000KT M03/M04 A3023 RMK A01 T10271037  RH  093%=      5-min Rain = 0
KSC1 130721Z 22000KT M03/M03 A3023 RMK A01 T10251031  RH  096%=      5-min Rain = 0
KSC1 130722Z 22000KT M02/M03 A3023 RMK A01 T10241029  RH  096%=      5-min Rain = 0
KSC1 130723Z 00000KT M02/M03 A3023 RMK A01 T10211027  RH  096%=      5-min Rain = 0
KSC1 130724Z 09000KT M02/M03 A3023 RMK A01 T10211028  RH  095%=      5-min Rain = 0
KSC1 130725Z 08000KT M02/M03 A3023 RMK A01 T10211032  RH  092%=      5-min Rain = 0
KSC1 130726Z 08001KT M02/M04 A3023 RMK A01 T10231036  RH  091%=      5-min Rain = 0
KSC1 130727Z 04001KT M03/M04 A3023 RMK A01 T10251038  RH  091%=      5-min Rain = 0
KSC1 130728Z 05001KT M03/M04 A3023 RMK A01 T10251038  RH  091%=      5-min Rain = 0
KSC1 130729Z 10000KT M03/M04 A3023 RMK A01 T10261038  RH  092%=      5-min Rain = 0
KSC1 130730Z 10000KT M03/M04 A3024 RMK A01 T10271037  RH  093%=      5-min Rain = 0
KSC1 130731Z 00000KT M03/M04 A3024 RMK A01 T10271036  RH  094%=      5-min Rain = 0
KSC1 130732Z 34000KT M03/M03 A3024 RMK A01 T10261034  RH  094%=      5-min Rain = 0
KSC1 130733Z 28000KT M03/M04 A3024 RMK A01 T10261035  RH  093%=      5-min Rain = 0
KSC1 130734Z 24001KT M03/M03 A3024 RMK A01 T10261034  RH  094%=      5-min Rain = 0
KSC1 130735Z 22002KT M03/M03 A3023 RMK A01 T10251033  RH  095%=      5-min Rain = 0
KSC1 130736Z 22003KT M02/M03 A3023 RMK A01 T10241030  RH  095%=      5-min Rain = 0
KSC1 130737Z 21004KT M02/M03 A3023 RMK A01 T10221027  RH  097%=      5-min Rain = 0
KSC1 130738Z 22005KT M02/M02 A3023 RMK A01 T10191023  RH  097%=      5-min Rain = 0
KSC1 130739Z 22005KT M01/M02 A3023 RMK A01 T10131016  RH  098%=      5-min Rain = 0
KSC1 130740Z 22006KT M01/M01 A3023 RMK A01 T10051011  RH  095%=      5-min Rain = 0
KSC1 130741Z 22005KT 00/M01 A3023 RMK A01 T00011013  RH  090%=      5-min Rain = 0
KSC1 130742Z 23005KT 01/M02 A3023 RMK A01 T00051016  RH  086%=      5-min Rain = 0
KSC1 130743Z 22006KT 01/M02 A3023 RMK A01 T00071018  RH  083%=      5-min Rain = 0
KSC1 130744Z 22007KT 01/M02 A3023 RMK A01 T00091019  RH  081%=      5-min Rain = 0
KSC1 130745Z 22007KT 01/M02 A3023 RMK A01 T00111020  RH  080%=      5-min Rain = 0
KSC1 130746Z 22007KT 01/M02 A3023 RMK A01 T00111021  RH  079%=      5-min Rain = 0
KSC1 130747Z 22007KT 01/M02 A3023 RMK A01 T00121021  RH  078%=      5-min Rain = 0
KSC1 130748Z 22007KT 01/M02 A3023 RMK A01 T00131022  RH  078%=      5-min Rain = 0
KSC1 130749Z 22007KT 01/M02 A3023 RMK A01 T00141022  RH  077%=      5-min Rain = 0
KSC1 130750Z 22006KT 01/M02 A3023 RMK A01 T00131023  RH  077%=      5-min Rain = 0
KSC1 130751Z 23008KT 01/M02 A3023 RMK A01 T00131023  RH  077%=      5-min Rain = 0
KSC1 130752Z 23007KT 01/M02 A3023 RMK A01 T00141023  RH  077%=      5-min Rain = 0
KSC1 130753Z 23008KT 02/M02 A3023 RMK A01 T00151022  RH  076%=      5-min Rain = 0
KSC1 130754Z 23008KT 02/M02 A3023 RMK A01 T00161022  RH  076%=      5-min Rain = 0
KSC1 130755Z 23007KT 02/M02 A3023 RMK A01 T00171023  RH  075%=      5-min Rain = 0
KSC1 130756Z 23007KT 02/M02 A3023 RMK A01 T00171023  RH  075%=      5-min Rain = 0
KSC1 130757Z 22007KT 02/M02 A3023 RMK A01 T00161024  RH  075%=      5-min Rain = 0
KSC1 130758Z 23008KT 02/M02 A3023 RMK A01 T00161023  RH  075%=      5-min Rain = 0
KSC1 130759Z 23007KT 02/M02 A3023 RMK A01 T00161023  RH  075%=      5-min Rain = 0
KSC1 130800Z 22008KT 02/M02 A3023 RMK A01 T00161024  RH  075%=      5-min Rain = 0
KSC1 130801Z 23007KT 02/M02 A3023 RMK A01 T00161024  RH  075%=      5-min Rain = 0
KSC1 130802Z 23007KT 02/M02 A3023 RMK A01 T00161024  RH  075%=      5-min Rain = 0
KSC1 130803Z 23007KT 02/M02 A3023 RMK A01 T00151024  RH  075%=      5-min Rain = 0
KSC1 130804Z 23006KT 02/M02 A3023 RMK A01 T00151024  RH  075%=      5-min Rain = 0
KSC1 130805Z 23006KT 02/M02 A3023 RMK A01 T00151024  RH  075%=      5-min Rain = 0
KSC1 130806Z 24007KT 02/M02 A3023 RMK A01 T00151024  RH  075%=      5-min Rain = 0
KSC1 130807Z 23006KT 02/M03 A3023 RMK A01 T00151025  RH  075%=      5-min Rain = 0
KSC1 130808Z 23007KT 01/M03 A3023 RMK A01 T00141025  RH  075%=      5-min Rain = 0
KSC1 130809Z 24006KT 01/M02 A3023 RMK A01 T00141024  RH  075%=      5-min Rain = 0
KSC1 130810Z 23005KT 01/M02 A3023 RMK A01 T00141024  RH  075%=      5-min Rain = 0
KSC1 130811Z 23007KT 01/M03 A3023 RMK A01 T00141025  RH  075%=      5-min Rain = 0
KSC1 130812Z 23007KT 01/M02 A3023 RMK A01 T00141024  RH  075%=      5-min Rain = 0
KSC1 130813Z 23007KT 02/M02 A3023 RMK A01 T00161024  RH  075%=      5-min Rain = 0
KSC1 130814Z 24006KT 02/M02 A3023 RMK A01 T00161024  RH  075%=      5-min Rain = 0
KSC1 130815Z 24005KT 02/M03 A3023 RMK A01 T00151025  RH  075%=      5-min Rain = 0
KSC1 130816Z 23005KT 01/M03 A3023 RMK A01 T00141025  RH  075%=      5-min Rain = 0
KSC1 130817Z 24005KT 01/M03 A3023 RMK A01 T00141025  RH  075%=      5-min Rain = 0
KSC1 130818Z 24005G10KT 01/M03 A3023 RMK A01 T00131026  RH  076%=      5-min Rain = 0
KSC1 130819Z 23007KT 01/M03 A3023 RMK A01 T00121025  RH  076%=      5-min Rain = 0
KSC1 130820Z 23005KT 01/M03 A3023 RMK A01 T00131025  RH  076%=      5-min Rain = 0
KSC1 130821Z 24006KT 01/M03 A3023 RMK A01 T00141025  RH  076%=      5-min Rain = 0
KSC1 130822Z 24006KT 01/M03 A3023 RMK A01 T00141025  RH  076%=      5-min Rain = 0
KSC1 130823Z 23006KT 01/M02 A3023 RMK A01 T00141024  RH  075%=      5-min Rain = 0
KSC1 130824Z 25006KT 01/M03 A3023 RMK A01 T00141025  RH  075%=      5-min Rain = 0
KSC1 130825Z 24006KT 01/M03 A3023 RMK A01 T00141025  RH  075%=      5-min Rain = 0
KSC1 130826Z 25007KT 01/M03 A3023 RMK A01 T00141025  RH  075%=      5-min Rain = 0
KSC1 130827Z 25005KT 01/M03 A3023 RMK A01 T00141025  RH  075%=      5-min Rain = 0
KSC1 130828Z 25005KT 01/M03 A3023 RMK A01 T00131026  RH  075%=      5-min Rain = 0
KSC1 130829Z 25006KT 01/M03 A3023 RMK A01 T00121026  RH  076%=      5-min Rain = 0
KSC1 130830Z 26005KT 01/M03 A3023 RMK A01 T00111026  RH  076%=      5-min Rain = 0
KSC1 130831Z 25005KT 01/M03 A3023 RMK A01 T00111026  RH  076%=      5-min Rain = 0
KSC1 130832Z 26005KT 01/M03 A3023 RMK A01 T00111026  RH  077%=      5-min Rain = 0
KSC1 130833Z 25005KT 01/M03 A3023 RMK A01 T00111026  RH  077%=      5-min Rain = 0
KSC1 130834Z 26005KT 01/M03 A3023 RMK A01 T00101026  RH  077%=      5-min Rain = 0
KSC1 130835Z 25005KT 01/M03 A3023 RMK A01 T00101025  RH  077%=      5-min Rain = 0
KSC1 130836Z 25006KT 01/M03 A3023 RMK A01 T00091026  RH  077%=      5-min Rain = 0
KSC1 130837Z 25006KT 01/M03 A3023 RMK A01 T00091026  RH  078%=      5-min Rain = 0
KSC1 130838Z 25005KT 01/M03 A3023 RMK A01 T00101025  RH  077%=      5-min Rain = 0
KSC1 130839Z 25005KT 01/M03 A3023 RMK A01 T00101025  RH  077%=      5-min Rain = 0
KSC1 130840Z 25006KT 01/M03 A3023 RMK A01 T00111026  RH  077%=      5-min Rain = 0
KSC1 130841Z 25006KT 01/M03 A3023 RMK A01 T00111025  RH  077%=      5-min Rain = 0
KSC1 130842Z 25006KT 01/M03 A3023 RMK A01 T00111025  RH  077%=      5-min Rain = 0
KSC1 130843Z 25007KT 01/M03 A3023 RMK A01 T00121025  RH  076%=      5-min Rain = 0
KSC1 130844Z 25007KT 01/M03 A3023 RMK A01 T00121025  RH  076%=      5-min Rain = 0
KSC1 130845Z 25007KT 01/M02 A3023 RMK A01 T00131024  RH  076%=      5-min Rain = 0
KSC1 130846Z 24007KT 01/M02 A3023 RMK A01 T00131024  RH  076%=      5-min Rain = 0
KSC1 130847Z 24008KT 01/M02 A3023 RMK A01 T00141024  RH  076%=      5-min Rain = 0
KSC1 130848Z 24007KT 02/M02 A3023 RMK A01 T00151024  RH  075%=      5-min Rain = 0
KSC1 130849Z 23008KT 02/M03 A3023 RMK A01 T00151025  RH  075%=      5-min Rain = 0
KSC1 130850Z 24009KT 02/M03 A3023 RMK A01 T00151025  RH  075%=      5-min Rain = 0
KSC1 130851Z 23009KT 02/M02 A3023 RMK A01 T00161024  RH  075%=      5-min Rain = 0
KSC1 130852Z 22007KT 02/M02 A3023 RMK A01 T00181023  RH  074%=      5-min Rain = 0
KSC1 130853Z 23007KT 02/M02 A3023 RMK A01 T00191024  RH  073%=      5-min Rain = 0
KSC1 130854Z 24007KT 02/M02 A3023 RMK A01 T00181024  RH  074%=      5-min Rain = 0
KSC1 130855Z 25007KT 02/M03 A3023 RMK A01 T00171025  RH  074%=      5-min Rain = 0
KSC1 130856Z 24006KT 02/M03 A3023 RMK A01 T00171025  RH  074%=      5-min Rain = 0
KSC1 130857Z 25005KT 02/M03 A3023 RMK A01 T00171025  RH  073%=      5-min Rain = 0
KSC1 130858Z 23009KT 02/M03 A3023 RMK A01 T00161026  RH  074%=      5-min Rain = 0
KSC1 130859Z 24007KT 02/M03 A3023 RMK A01 T00171025  RH  074%=      5-min Rain = 0
KSC1 130900Z 25007KT 02/M03 A3023 RMK A01 T00171025  RH  074%=      5-min Rain = 0
KSC1 130901Z 24007KT 02/M03 A3023 RMK A01 T00161026  RH  074%=      5-min Rain = 0
KSC1 130902Z 25008KT 02/M03 A3023 RMK A01 T00161025  RH  074%=      5-min Rain = 0
KSC1 130903Z 24007KT 02/M03 A3023 RMK A01 T00171025  RH  074%=      5-min Rain = 0
KSC1 130904Z 24009KT 02/M03 A3023 RMK A01 T00171025  RH  074%=      5-min Rain = 0
KSC1 130905Z 23009KT 02/M03 A3023 RMK A01 T00171025  RH  074%=      5-min Rain = 0
KSC1 130906Z 23009KT 02/M02 A3023 RMK A01 T00181024  RH  074%=      5-min Rain = 0
KSC1 130907Z 23008KT 02/M03 A3023 RMK A01 T00191025  RH  073%=      5-min Rain = 0
KSC1 130908Z 22007KT 02/M03 A3023 RMK A01 T00181025  RH  073%=      5-min Rain = 0
KSC1 130909Z 23008KT 02/M03 A3023 RMK A01 T00171026  RH  073%=      5-min Rain = 0
KSC1 130910Z 23009KT 02/M03 A3023 RMK A01 T00161026  RH  073%=      5-min Rain = 0
KSC1 130911Z 23008KT 02/M03 A3023 RMK A01 T00161026  RH  074%=      5-min Rain = 0
KSC1 130912Z 23008KT 02/M03 A3023 RMK A01 T00161026  RH  074%=      5-min Rain = 0
KSC1 130913Z 22008KT 02/M03 A3023 RMK A01 T00151026  RH  074%=      5-min Rain = 0
KSC1 130914Z 22008KT 01/M03 A3023 RMK A01 T00141027  RH  074%=      5-min Rain = 0
KSC1 130915Z 22008KT 01/M03 A3023 RMK A01 T00131027  RH  075%=      5-min Rain = 0
KSC1 130916Z 22008KT 01/M03 A3023 RMK A01 T00121027  RH  075%=      5-min Rain = 0
KSC1 130917Z 22008KT 01/M03 A3023 RMK A01 T00131026  RH  075%=      5-min Rain = 0
KSC1 130918Z 22007KT 01/M03 A3023 RMK A01 T00131026  RH  075%=      5-min Rain = 0
KSC1 130919Z 22007KT 01/M03 A3023 RMK A01 T00121027  RH  075%=      5-min Rain = 0
KSC1 130920Z 23007KT 01/M03 A3023 RMK A01 T00121026  RH  076%=      5-min Rain = 0
KSC1 130921Z 23006KT 01/M03 A3023 RMK A01 T00111027  RH  076%=      5-min Rain = 0
KSC1 130922Z 23007KT 01/M03 A3023 RMK A01 T00111027  RH  076%=      5-min Rain = 0
KSC1 130923Z 22006KT 01/M03 A3023 RMK A01 T00101027  RH  076%=      5-min Rain = 0
KSC1 130924Z 22006KT 01/M03 A3023 RMK A01 T00101027  RH  076%=      5-min Rain = 0
KSC1 130925Z 22006KT 01/M03 A3023 RMK A01 T00101027  RH  076%=      5-min Rain = 0
KSC1 130926Z 22006KT 01/M03 A3023 RMK A01 T00101027  RH  076%=      5-min Rain = 0
KSC1 130927Z 22006KT 01/M03 A3023 RMK A01 T00091027  RH  077%=      5-min Rain = 0
KSC1 130928Z 22006KT 01/M03 A3023 RMK A01 T00091027  RH  077%=      5-min Rain = 0
KSC1 130929Z 21006KT 01/M03 A3023 RMK A01 T00091027  RH  077%=      5-min Rain = 0
KSC1 130930Z 22006KT 01/M03 A3023 RMK A01 T00081027  RH  077%=      5-min Rain = 0
KSC1 130931Z 21006KT 01/M03 A3023 RMK A01 T00081027  RH  077%=      5-min Rain = 0
KSC1 130932Z 21005KT 01/M03 A3023 RMK A01 T00081027  RH  077%=      5-min Rain = 0
KSC1 130933Z 21005KT 01/M03 A3023 RMK A01 T00091027  RH  077%=      5-min Rain = 0
KSC1 130934Z 21005KT 01/M03 A3023 RMK A01 T00081027  RH  077%=      5-min Rain = 0
KSC1 130935Z 20005KT 01/M03 A3023 RMK A01 T00081027  RH  077%=      5-min Rain = 0
KSC1 130936Z 20006KT 01/M03 A3023 RMK A01 T00081027  RH  078%=      5-min Rain = 0
KSC1 130937Z 21005KT 01/M03 A3023 RMK A01 T00081027  RH  078%=      5-min Rain = 0
KSC1 130938Z 21005KT 01/M03 A3023 RMK A01 T00081027  RH  078%=      5-min Rain = 0
KSC1 130939Z 21004KT 01/M03 A3023 RMK A01 T00071027  RH  078%=      5-min Rain = 0
KSC1 130940Z 21005KT 01/M03 A3023 RMK A01 T00071027  RH  078%=      5-min Rain = 0
KSC1 130941Z 21005KT 01/M03 A3023 RMK A01 T00081026  RH  078%=      5-min Rain = 0
KSC1 130942Z 21004KT 01/M03 A3023 RMK A01 T00081027  RH  078%=      5-min Rain = 0
KSC1 130943Z 21005KT 01/M03 A3023 RMK A01 T00081026  RH  078%=      5-min Rain = 0
KSC1 130944Z 21004KT 01/M03 A3023 RMK A01 T00091026  RH  078%=      5-min Rain = 0
KSC1 130945Z 21005KT 01/M03 A3023 RMK A01 T00101026  RH  077%=      5-min Rain = 0
KSC1 130946Z 21005KT 01/M03 A3023 RMK A01 T00101027  RH  076%=      5-min Rain = 0
KSC1 130947Z 21004KT 01/M03 A3023 RMK A01 T00091028  RH  077%=      5-min Rain = 0
KSC1 130948Z 20006KT 01/M03 A3023 RMK A01 T00081028  RH  077%=      5-min Rain = 0
KSC1 130949Z 20006KT 01/M03 A3023 RMK A01 T00071028  RH  077%=      5-min Rain = 0
KSC1 130950Z 22005KT 01/M03 A3023 RMK A01 T00091026  RH  078%=      5-min Rain = 0
KSC1 130951Z 21005KT 01/M03 A3023 RMK A01 T00091027  RH  077%=      5-min Rain = 0
KSC1 130952Z 22005KT 01/M03 A3023 RMK A01 T00081028  RH  077%=      5-min Rain = 0
KSC1 130953Z 22005KT 01/M03 A3023 RMK A01 T00081027  RH  077%=      5-min Rain = 0
KSC1 130954Z 21005KT 01/M03 A3023 RMK A01 T00091027  RH  077%=      5-min Rain = 0
KSC1 130955Z 23005KT 01/M03 A3023 RMK A01 T00091028  RH  076%=      5-min Rain = 0
KSC1 130956Z 23007KT 01/M03 A3023 RMK A01 T00101026  RH  077%=      5-min Rain = 0
KSC1 130957Z 23006KT 01/M03 A3023 RMK A01 T00121025  RH  076%=      5-min Rain = 0
KSC1 130958Z 22007KT 02/M02 A3023 RMK A01 T00151024  RH  075%=      5-min Rain = 0
KSC1 130959Z 21007KT 02/M03 A3023 RMK A01 T00151025  RH  074%=      5-min Rain = 0
KSC1 131000Z 21007KT 01/M03 A3023 RMK A01 T00141027  RH  074%=      5-min Rain = 0
KSC1 131001Z 21007KT 01/M03 A3023 RMK A01 T00111029  RH  074%=      5-min Rain = 0
KSC1 131002Z 21007KT 01/M03 A3022 RMK A01 T00101028  RH  076%=      5-min Rain = 0
KSC1 131003Z 21006KT 01/M03 A3022 RMK A01 T00091028  RH  076%=      5-min Rain = 0
KSC1 131004Z 21007KT 01/M03 A3022 RMK A01 T00091028  RH  077%=      5-min Rain = 0
KSC1 131005Z 21007KT 01/M03 A3022 RMK A01 T00081027  RH  077%=      5-min Rain = 0
KSC1 131006Z 21007KT 01/M03 A3022 RMK A01 T00091027  RH  077%=      5-min Rain = 0
KSC1 131007Z 21008KT 01/M03 A3022 RMK A01 T00081028  RH  077%=      5-min Rain = 0
KSC1 131008Z 22007KT 01/M03 A3022 RMK A01 T00081027  RH  077%=      5-min Rain = 0
KSC1 131009Z 21008KT 01/M03 A3022 RMK A01 T00081027  RH  077%=      5-min Rain = 0
KSC1 131010Z 22008KT 01/M03 A3022 RMK A01 T00091026  RH  078%=      5-min Rain = 0
KSC1 131011Z 22008KT 01/M03 A3022 RMK A01 T00091026  RH  077%=      5-min Rain = 0
KSC1 131012Z 21008KT 01/M03 A3022 RMK A01 T00101026  RH  077%=      5-min Rain = 0
KSC1 131013Z 22008KT 01/M03 A3022 RMK A01 T00101026  RH  077%=      5-min Rain = 0
KSC1 131014Z 21008KT 01/M03 A3022 RMK A01 T00101026  RH  077%=      5-min Rain = 0
KSC1 131015Z 21008KT 01/M03 A3022 RMK A01 T00101026  RH  077%=      5-min Rain = 0
KSC1 131016Z 21008KT 01/M03 A3022 RMK A01 T00091027  RH  077%=      5-min Rain = 0
KSC1 131017Z 21007KT 01/M03 A3022 RMK A01 T00081027  RH  077%=      5-min Rain = 0
KSC1 131018Z 21008KT 01/M03 A3022 RMK A01 T00081026  RH  078%=      5-min Rain = 0
KSC1 131019Z 21007KT 01/M03 A3022 RMK A01 T00071027  RH  078%=      5-min Rain = 0
KSC1 131020Z 21008KT 01/M03 A3022 RMK A01 T00071026  RH  078%=      5-min Rain = 0
KSC1 131021Z 21008KT 01/M03 A3022 RMK A01 T00071026  RH  079%=      5-min Rain = 0
KSC1 131022Z 21008KT 01/M03 A3022 RMK A01 T00061027  RH  079%=      5-min Rain = 0
KSC1 131023Z 21007KT 01/M03 A3022 RMK A01 T00061027  RH  079%=      5-min Rain = 0
KSC1 131024Z 21007KT 01/M03 A3022 RMK A01 T00051027  RH  079%=      5-min Rain = 0
KSC1 131025Z 21008KT 01/M03 A3022 RMK A01 T00051027  RH  079%=      5-min Rain = 0
KSC1 131026Z 20008KT 01/M03 A3022 RMK A01 T00051026  RH  080%=      5-min Rain = 0
KSC1 131027Z 20008KT 01/M03 A3022 RMK A01 T00051026  RH  080%=      5-min Rain = 0
KSC1 131028Z 20008KT 01/M03 A3022 RMK A01 T00051026  RH  079%=      5-min Rain = 0
KSC1 131029Z 20008KT 01/M03 A3022 RMK A01 T00061026  RH  079%=      5-min Rain = 0
KSC1 131030Z 21008KT 01/M03 A3022 RMK A01 T00061026  RH  079%=      5-min Rain = 0
KSC1 131031Z 20008KT 01/M03 A3022 RMK A01 T00061026  RH  079%=      5-min Rain = 0
KSC1 131032Z 20007KT 01/M03 A3022 RMK A01 T00061026  RH  079%=      5-min Rain = 0
KSC1 131033Z 20008KT 01/M03 A3022 RMK A01 T00061026  RH  079%=      5-min Rain = 0
KSC1 131034Z 20007KT 01/M03 A3022 RMK A01 T00071026  RH  079%=      5-min Rain = 0
KSC1 131035Z 21008KT 01/M03 A3022 RMK A01 T00071025  RH  079%=      5-min Rain = 0
KSC1 131036Z 20007KT 01/M03 A3022 RMK A01 T00081025  RH  079%=      5-min Rain = 0
KSC1 131037Z 21007KT 01/M02 A3022 RMK A01 T00101024  RH  078%=      5-min Rain = 0
KSC1 131038Z 19008KT 01/M02 A3022 RMK A01 T00111024  RH  077%=      5-min Rain = 0
KSC1 131039Z 20007KT 01/M02 A3022 RMK A01 T00131023  RH  077%=      5-min Rain = 0
KSC1 131040Z 21007KT 01/M02 A3022 RMK A01 T00131024  RH  076%=      5-min Rain = 0
KSC1 131041Z 21007KT 01/M02 A3022 RMK A01 T00131024  RH  076%=      5-min Rain = 0
KSC1 131042Z 19007KT 01/M03 A3022 RMK A01 T00141025  RH  076%=      5-min Rain = 0
KSC1 131043Z 20007KT 01/M03 A3022 RMK A01 T00131025  RH  075%=      5-min Rain = 0
KSC1 131044Z 19007KT 01/M03 A3022 RMK A01 T00121025  RH  076%=      5-min Rain = 0
KSC1 131045Z 20007KT 01/M03 A3022 RMK A01 T00121025  RH  076%=      5-min Rain = 0
KSC1 131046Z 20007KT 01/M03 A3022 RMK A01 T00121025  RH  076%=      5-min Rain = 0
KSC1 131047Z 21007KT 01/M03 A3022 RMK A01 T00121026  RH  076%=      5-min Rain = 0
KSC1 131048Z 20006KT 01/M03 A3022 RMK A01 T00111026  RH  077%=      5-min Rain = 0
KSC1 131049Z 20007KT 01/M03 A3022 RMK A01 T00111025  RH  077%=      5-min Rain = 0
KSC1 131050Z 20007KT 01/M03 A3022 RMK A01 T00111025  RH  077%=      5-min Rain = 0
KSC1 131051Z 20008KT 01/M03 A3022 RMK A01 T00111025  RH  077%=      5-min Rain = 0
KSC1 131052Z 20007KT 01/M03 A3021 RMK A01 T00111025  RH  077%=      5-min Rain = 0
KSC1 131053Z 20008KT 01/M03 A3021 RMK A01 T00111025  RH  077%=      5-min Rain = 0
KSC1 131054Z 20008KT 01/M02 A3021 RMK A01 T00111024  RH  077%=      5-min Rain = 0
KSC1 131055Z 20008KT 01/M02 A3021 RMK A01 T00111024  RH  077%=      5-min Rain = 0
KSC1 131056Z 20008KT 01/M03 A3021 RMK A01 T00111025  RH  077%=      5-min Rain = 0
KSC1 131057Z 20008KT 01/M02 A3021 RMK A01 T00111024  RH  077%=      5-min Rain = 0
KSC1 131058Z 20008KT 01/M03 A3021 RMK A01 T00111025  RH  077%=      5-min Rain = 0
KSC1 131059Z 20006KT 01/M03 A3021 RMK A01 T00101025  RH  077%=      5-min Rain = 0
KSC1 131100Z 20006KT 01/M03 A3021 RMK A01 T00101025  RH  077%=      5-min Rain = 0
KSC1 131101Z 22004KT 01/M03 A3022 RMK A01 T00091026  RH  077%=      5-min Rain = 0
KSC1 131102Z 19004KT 01/M03 A3022 RMK A01 T00081027  RH  077%=      5-min Rain = 0
KSC1 131103Z 22005KT 01/M03 A3022 RMK A01 T00071027  RH  078%=      5-min Rain = 0
KSC1 131104Z 24003KT 01/M03 A3022 RMK A01 T00061027  RH  078%=      5-min Rain = 0
KSC1 131105Z 23004KT 01/M03 A3022 RMK A01 T00061027  RH  079%=      5-min Rain = 0
KSC1 131106Z 22003KT 01/M03 A3021 RMK A01 T00061026  RH  079%=      5-min Rain = 0
KSC1 131107Z 24003KT 01/M03 A3022 RMK A01 T00071026  RH  078%=      5-min Rain = 0
KSC1 131108Z 28003KT 01/M03 A3022 RMK A01 T00071028  RH  077%=      5-min Rain = 0
KSC1 131109Z 29003KT 01/M03 A3022 RMK A01 T00051030  RH  077%=      5-min Rain = 0
KSC1 131110Z 31002KT 00/M03 A3021 RMK A01 T00021031  RH  079%=      5-min Rain = 0
KSC1 131111Z 32002KT 00/03 A3021 RMK A01 T00000-31  RH  080%=      5-min Rain = 0
KSC1 131112Z 29003KT M00/M03 A3021 RMK A01 T10011032  RH  080%=      5-min Rain = 0
KSC1 131113Z 28002KT M00/M03 A3021 RMK A01 T10041034  RH  080%=      5-min Rain = 0
KSC1 131114Z 20001KT M01/M03 A3021 RMK A01 T10061033  RH  082%=      5-min Rain = 0
KSC1 131115Z 28002KT M01/M03 A3021 RMK A01 T10061030  RH  084%=      5-min Rain = 0
KSC1 131116Z 23005KT M01/M03 A3021 RMK A01 T10061031  RH  084%=      5-min Rain = 0
KSC1 131117Z 25004KT M00/M03 A3021 RMK A01 T10031027  RH  084%=      5-min Rain = 0
KSC1 131118Z 23002KT M00/M03 A3021 RMK A01 T10011028  RH  082%=      5-min Rain = 0
KSC1 131119Z 18003KT M00/M03 A3021 RMK A01 T10011030  RH  081%=      5-min Rain = 0
KSC1 131120Z 18004KT M00/M03 A3021 RMK A01 T10031032  RH  081%=      5-min Rain = 0
KSC1 131121Z 20003KT M00/M03 A3021 RMK A01 T10031031  RH  082%=      5-min Rain = 0
KSC1 131122Z 24005KT M00/M03 A3021 RMK A01 T10041032  RH  081%=      5-min Rain = 0
KSC1 131123Z 19004KT M00/M03 A3021 RMK A01 T10021028  RH  083%=      5-min Rain = 0
KSC1 131124Z 20006KT 00/M02 A3021 RMK A01 T00041024  RH  081%=      5-min Rain = 0
KSC1 131125Z 19006KT 01/M02 A3021 RMK A01 T00081023  RH  080%=      5-min Rain = 0
KSC1 131126Z 20007KT 01/M03 A3021 RMK A01 T00081025  RH  078%=      5-min Rain = 0
KSC1 131127Z 20006KT 01/M03 A3021 RMK A01 T00071027  RH  078%=      5-min Rain = 0
KSC1 131128Z 21007KT 01/M03 A3021 RMK A01 T00071026  RH  078%=      5-min Rain = 0
KSC1 131129Z 20007KT 01/M03 A3021 RMK A01 T00081026  RH  078%=      5-min Rain = 0
KSC1 131130Z 21007KT 01/M03 A3021 RMK A01 T00091026  RH  077%=      5-min Rain = 0
KSC1 131131Z 20006KT 01/M03 A3021 RMK A01 T00091027  RH  077%=      5-min Rain = 0
KSC1 131132Z 22006KT 01/M03 A3021 RMK A01 T00081028  RH  077%=      5-min Rain = 0
KSC1 131133Z 21005KT 01/M03 A3021 RMK A01 T00071028  RH  077%=      5-min Rain = 0
KSC1 131134Z 20006KT 01/M03 A3021 RMK A01 T00071028  RH  078%=      5-min Rain = 0
KSC1 131135Z 20006KT 01/M03 A3021 RMK A01 T00061028  RH  078%=      5-min Rain = 0
KSC1 131136Z 21006KT 01/M03 A3021 RMK A01 T00061028  RH  078%=      5-min Rain = 0
KSC1 131137Z 21006KT 01/M03 A3021 RMK A01 T00051028  RH  078%=      5-min Rain = 0
KSC1 131138Z 21006KT 01/M03 A3021 RMK A01 T00061027  RH  079%=      5-min Rain = 0
KSC1 131139Z 21004KT 01/M03 A3021 RMK A01 T00101026  RH  077%=      5-min Rain = 0
KSC1 131140Z 21003KT 01/M03 A3021 RMK A01 T00101027  RH  076%=      5-min Rain = 0
KSC1 131141Z 22005KT 01/M03 A3021 RMK A01 T00101028  RH  076%=      5-min Rain = 0
KSC1 131142Z 21005KT 01/M03 A3021 RMK A01 T00091028  RH  076%=      5-min Rain = 0
KSC1 131143Z 21005KT 01/M03 A3021 RMK A01 T00081030  RH  076%=      5-min Rain = 0
KSC1 131144Z 21006KT 01/M03 A3021 RMK A01 T00061031  RH  077%=      5-min Rain = 0
KSC1 131145Z 21007KT 01/M03 A3021 RMK A01 T00051030  RH  078%=      5-min Rain = 0
KSC1 131146Z 22006KT 01/M03 A3021 RMK A01 T00051029  RH  078%=      5-min Rain = 0
KSC1 131147Z 21006KT 01/M03 A3021 RMK A01 T00061029  RH  078%=      5-min Rain = 0
KSC1 131148Z 22005KT 01/M03 A3021 RMK A01 T00051029  RH  077%=      5-min Rain = 0
KSC1 131149Z 22005KT 01/M03 A3021 RMK A01 T00051030  RH  078%=      5-min Rain = 0
KSC1 131150Z 21003KT 00/M03 A3021 RMK A01 T00041030  RH  078%=      5-min Rain = 0
KSC1 131151Z 21005KT 00/M03 A3021 RMK A01 T00031031  RH  078%=      5-min Rain = 0
KSC1 131152Z 21005KT 00/M03 A3021 RMK A01 T00021032  RH  078%=      5-min Rain = 0
KSC1 131153Z 22005KT 00/03 A3021 RMK A01 T00000-33  RH  078%=      5-min Rain = 0
KSC1 131154Z 22005KT 00/03 A3021 RMK A01 T00000-31  RH  079%=      5-min Rain = 0
KSC1 131155Z 21006KT 00/03 A3021 RMK A01 T00-00-31  RH  080%=      5-min Rain = 0
KSC1 131156Z 21005KT M00/M03 A302 RMK A01 T10011031  RH  080%=      5-min Rain = 0
KSC1 131157Z 22005KT M00/M03 A3021 RMK A01 T10011032  RH  080%=      5-min Rain = 0
KSC1 131158Z 21003KT M00/M03 A3021 RMK A01 T10021034  RH  079%=      5-min Rain = 0
KSC1 131159Z 21005KT M00/M04 A3021 RMK A01 T10041035  RH  080%=      5-min Rain = 0
KSC1 131200Z 22004KT M01/M04 A3021 RMK A01 T10051035  RH  080%=      5-min Rain = 0
KSC1 131201Z 21003KT M01/M03 A3021 RMK A01 T10051034  RH  081%=      5-min Rain = 0
KSC1 131202Z 21004KT M01/M04 A3021 RMK A01 T10071035  RH  081%=      5-min Rain = 0
KSC1 131203Z 21006KT M01/M03 A302 RMK A01 T10071033  RH  083%=      5-min Rain = 0
KSC1 131204Z 21006KT M01/M03 A302 RMK A01 T10061031  RH  083%=      5-min Rain = 0
KSC1 131205Z 21007KT M01/M03 A302 RMK A01 T10051031  RH  083%=      5-min Rain = 0
KSC1 131206Z 21007KT M00/M03 A302 RMK A01 T10031029  RH  082%=      5-min Rain = 0
KSC1 131207Z 21008KT 00/03 A302 RMK A01 T00-00-29  RH  081%=      5-min Rain = 0
KSC1 131208Z 21008KT 00/M03 A302 RMK A01 T00021028  RH  080%=      5-min Rain = 0
KSC1 131209Z 21008KT 00/M03 A302 RMK A01 T00031028  RH  079%=      5-min Rain = 0
KSC1 131210Z 21008KT 00/M03 A302 RMK A01 T00041029  RH  079%=      5-min Rain = 0
KSC1 131211Z 21009KT 00/M03 A302 RMK A01 T00041029  RH  078%=      5-min Rain = 0
KSC1 131212Z 22008KT 00/M03 A302 RMK A01 T00041029  RH  078%=      5-min Rain = 0
KSC1 131213Z 22011KT 00/M03 A302 RMK A01 T00041029  RH  078%=      5-min Rain = 0
KSC1 131214Z 22010KT 00/M03 A302 RMK A01 T00041029  RH  078%=      5-min Rain = 0
KSC1 131215Z 21009KT 00/M03 A302 RMK A01 T00041030  RH  078%=      5-min Rain = 0
KSC1 131216Z 22009KT 00/M03 A302 RMK A01 T00041030  RH  078%=      5-min Rain = 0
KSC1 131217Z 21009KT 00/M03 A302 RMK A01 T00031030  RH  078%=      5-min Rain = 0
KSC1 131218Z 21009KT 00/M03 A302 RMK A01 T00031031  RH  078%=      5-min Rain = 0
KSC1 131219Z 22010KT 00/M03 A302 RMK A01 T00021031  RH  079%=      5-min Rain = 0
KSC1 131220Z 22010KT 00/M03 A302 RMK A01 T00021030  RH  079%=      5-min Rain = 0
KSC1 131221Z 22009KT 00/M03 A302 RMK A01 T00011031  RH  079%=      5-min Rain = 0
KSC1 131222Z 22009KT 00/M03 A302 RMK A01 T00011030  RH  079%=      5-min Rain = 0
KSC1 131223Z 22009KT 00/M03 A302 RMK A01 T00011030  RH  079%=      5-min Rain = 0
KSC1 131224Z 22010KT 00/M03 A302 RMK A01 T00011031  RH  079%=      5-min Rain = 0
KSC1 131225Z 22009KT 00/03 A302 RMK A01 T00000-31  RH  080%=      5-min Rain = 0
KSC1 131226Z 22011KT 00/03 A302 RMK A01 T00000-31  RH  080%=      5-min Rain = 0
KSC1 131227Z 22009KT 00/03 A302 RMK A01 T00-00-31  RH  080%=      5-min Rain = 0
KSC1 131228Z 22010KT M00/M03 A302 RMK A01 T10011031  RH  080%=      5-min Rain = 0
KSC1 131229Z 22010KT M00/M03 A302 RMK A01 T10011031  RH  080%=      5-min Rain = 0
KSC1 131230Z 22011KT M00/M03 A302 RMK A01 T10021031  RH  081%=      5-min Rain = 0
KSC1 131231Z 22009KT M00/M03 A302 RMK A01 T10021031  RH  081%=      5-min Rain = 0
KSC1 131232Z 23009KT M00/M03 A302 RMK A01 T10021031  RH  081%=      5-min Rain = 0
KSC1 131233Z 23010KT M00/M03 A302 RMK A01 T10021031  RH  081%=      5-min Rain = 0
KSC1 131234Z 23009KT M00/M03 A302 RMK A01 T10021031  RH  081%=      5-min Rain = 0
KSC1 131235Z 23010KT M00/M03 A302 RMK A01 T10021031  RH  081%=      5-min Rain = 0
KSC1 131236Z 22010KT M00/M03 A302 RMK A01 T10021031  RH  081%=      5-min Rain = 0
KSC1 131237Z 22011KT M00/M03 A302 RMK A01 T10031031  RH  081%=      5-min Rain = 0
KSC1 131238Z 22010KT M00/M03 A302 RMK A01 T10021030  RH  081%=      5-min Rain = 0
KSC1 131239Z 22009KT M00/M03 A302 RMK A01 T10021030  RH  081%=      5-min Rain = 0
KSC1 131240Z 22010KT M00/M03 A3019 RMK A01 T10021031  RH  081%=      5-min Rain = 0
KSC1 131241Z 22009KT M00/M03 A3019 RMK A01 T10011031  RH  081%=      5-min Rain = 0
KSC1 131242Z 22010KT M00/M03 A3019 RMK A01 T10011031  RH  080%=      5-min Rain = 0
KSC1 131243Z 22010KT M00/M03 A3019 RMK A01 T10011031  RH  080%=      5-min Rain = 0
KSC1 131244Z 22008KT M00/M03 A3019 RMK A01 T10011031  RH  080%=      5-min Rain = 0
KSC1 131245Z 22010KT M00/M03 A3019 RMK A01 T10011031  RH  080%=      5-min Rain = 0
KSC1 131246Z 22010KT M00/M03 A3019 RMK A01 T10011031  RH  080%=      5-min Rain = 0
KSC1 131247Z 23010KT M00/M03 A3019 RMK A01 T10011031  RH  080%=      5-min Rain = 0
KSC1 131248Z 23008KT 00/03 A3019 RMK A01 T00000-31  RH  080%=      5-min Rain = 0
KSC1 131249Z 22009KT 00/M03 A3019 RMK A01 T00011031  RH  079%=      5-min Rain = 0
KSC1 131250Z 22009KT 00/03 A3019 RMK A01 T00000-32  RH  079%=      5-min Rain = 0
KSC1 131251Z 22009KT 00/03 A3019 RMK A01 T00000-32  RH  079%=      5-min Rain = 0
KSC1 131252Z 22008KT 00/03 A3019 RMK A01 T00000-32  RH  079%=      5-min Rain = 0
KSC1 131253Z 23010KT 00/03 A3018 RMK A01 T00-00-32  RH  079%=      5-min Rain = 0
KSC1 131254Z 22009KT 00/M03 A3018 RMK A01 T00011032  RH  079%=      5-min Rain = 0
KSC1 131255Z 22008KT 00/M03 A3018 RMK A01 T00021032  RH  078%=      5-min Rain = 0
KSC1 131256Z 22008KT 00/M03 A3018 RMK A01 T00021032  RH  078%=      5-min Rain = 0
KSC1 131257Z 22008KT 00/M03 A3018 RMK A01 T00011032  RH  078%=      5-min Rain = 0
KSC1 131258Z 22007KT 00/M03 A3018 RMK A01 T00011032  RH  078%=      5-min Rain = 0
KSC1 131259Z 22007KT 00/M03 A3018 RMK A01 T00011033  RH  078%=      5-min Rain = 0
KSC1 131300Z 22006KT 00/03 A3018 RMK A01 T00-00-34  RH  078%=      5-min Rain = 0
KSC1 131301Z 22007KT M00/M04 A3018 RMK A01 T10021035  RH  078%=      5-min Rain = 0
KSC1 131302Z 21007KT M00/M03 A3018 RMK A01 T10031034  RH  079%=      5-min Rain = 0
KSC1 131303Z 22007KT M00/M03 A3018 RMK A01 T10021034  RH  079%=      5-min Rain = 0
KSC1 131304Z 22009KT M00/M03 A3018 RMK A01 T10031034  RH  080%=      5-min Rain = 0
KSC1 131305Z 22009KT M00/M03 A3018 RMK A01 T10021033  RH  080%=      5-min Rain = 0
KSC1 131306Z 22010KT M00/M03 A3018 RMK A01 T10011032  RH  079%=      5-min Rain = 0
KSC1 131307Z 22010KT 00/M03 A3018 RMK A01 T00011031  RH  079%=      5-min Rain = 0
KSC1 131308Z 23010KT 00/M03 A3018 RMK A01 T00011032  RH  078%=      5-min Rain = 0
KSC1 131309Z 22009KT 00/M03 A3018 RMK A01 T00021032  RH  078%=      5-min Rain = 0
KSC1 131310Z 22008KT 00/M03 A3018 RMK A01 T00021032  RH  078%=      5-min Rain = 0
KSC1 131311Z 22011KT 00/M03 A3018 RMK A01 T00021033  RH  078%=      5-min Rain = 0
KSC1 131312Z 22009KT 00/M03 A3018 RMK A01 T00021032  RH  078%=      5-min Rain = 0
KSC1 131313Z 22008KT 00/M03 A3018 RMK A01 T00021032  RH  078%=      5-min Rain = 0
KSC1 131314Z 22008KT 00/M03 A3017 RMK A01 T00021033  RH  078%=      5-min Rain = 0
KSC1 131315Z 22007KT 00/M03 A3017 RMK A01 T00021033  RH  077%=      5-min Rain = 0
KSC1 131316Z 21006KT 00/M03 A3017 RMK A01 T00011034  RH  078%=      5-min Rain = 0
KSC1 131317Z 22005KT 00/03 A3017 RMK A01 T00000-34  RH  078%=      5-min Rain = 0
KSC1 131318Z 21006KT 00/03 A3017 RMK A01 T00-00-34  RH  078%=      5-min Rain = 0
KSC1 131319Z 22005KT M00/M03 A3017 RMK A01 T10011034  RH  078%=      5-min Rain = 0
KSC1 131320Z 22005KT M00/M03 A3017 RMK A01 T10011034  RH  078%=      5-min Rain = 0
KSC1 131321Z 22005KT M00/M04 A3017 RMK A01 T10021035  RH  078%=      5-min Rain = 0
KSC1 131322Z 23005KT M00/M04 A3017 RMK A01 T10021035  RH  078%=      5-min Rain = 0
KSC1 131323Z 22004KT M00/M04 A3017 RMK A01 T10031036  RH  079%=      5-min Rain = 0
KSC1 131324Z 22004KT M00/M04 A3017 RMK A01 T10041036  RH  079%=      5-min Rain = 0
KSC1 131325Z 22004KT M00/M04 A3017 RMK A01 T10031035  RH  079%=      5-min Rain = 0
KSC1 131326Z 22006KT M00/M04 A3017 RMK A01 T10041036  RH  079%=      5-min Rain = 0
KSC1 131327Z 22007KT M00/M04 A3017 RMK A01 T10031036  RH  079%=      5-min Rain = 0
KSC1 131328Z 22008KT M00/M04 A3017 RMK A01 T10031035  RH  079%=      5-min Rain = 0
KSC1 131329Z 23007KT M00/M03 A3017 RMK A01 T10011034  RH  079%=      5-min Rain = 0
KSC1 131330Z 22007KT 00/03 A3017 RMK A01 T00-00-34  RH  078%=      5-min Rain = 0
KSC1 131331Z 23008KT 00/03 A3017 RMK A01 T00-00-34  RH  078%=      5-min Rain = 0
KSC1 131332Z 24008KT 00/M03 A3017 RMK A01 T00011034  RH  077%=      5-min Rain = 0
KSC1 131333Z 23008KT 00/M03 A3017 RMK A01 T00021034  RH  077%=      5-min Rain = 0
KSC1 131334Z 23008KT 00/M03 A3017 RMK A01 T00021034  RH  076%=      5-min Rain = 0
KSC1 131335Z 23007KT 00/M04 A3017 RMK A01 T00031035  RH  076%=      5-min Rain = 0
KSC1 131336Z 23008KT 00/M03 A3017 RMK A01 T00031034  RH  076%=      5-min Rain = 0
KSC1 131337Z 23008KT 00/M04 A3017 RMK A01 T00041035  RH  075%=      5-min Rain = 0
KSC1 131338Z 23007KT 00/M04 A3017 RMK A01 T00041035  RH  075%=      5-min Rain = 0
KSC1 131339Z 23008KT 01/M04 A3017 RMK A01 T00051035  RH  075%=      5-min Rain = 0
KSC1 131340Z 23006KT 01/M04 A3017 RMK A01 T00051035  RH  074%=      5-min Rain = 0
KSC1 131341Z 23008KT 01/M04 A3017 RMK A01 T00061035  RH  074%=      5-min Rain = 0
KSC1 131342Z 24009KT 01/M04 A3017 RMK A01 T00071035  RH  074%=      5-min Rain = 0
KSC1 131343Z 23009KT 01/M04 A3017 RMK A01 T00081035  RH  073%=      5-min Rain = 0
KSC1 131344Z 23007KT 01/M04 A3017 RMK A01 T00081035  RH  073%=      5-min Rain = 0
KSC1 131345Z 24007KT 01/M04 A3017 RMK A01 T00071036  RH  073%=      5-min Rain = 0
KSC1 131346Z 23008KT 01/M04 A3017 RMK A01 T00071036  RH  073%=      5-min Rain = 0
KSC1 131347Z 23009KT 01/M04 A3017 RMK A01 T00071036  RH  073%=      5-min Rain = 0
KSC1 131348Z 23008KT 01/M04 A3017 RMK A01 T00071036  RH  073%=      5-min Rain = 0
KSC1 131349Z 23008KT 01/M04 A3017 RMK A01 T00071036  RH  073%=      5-min Rain = 0
KSC1 131350Z 23009KT 01/M04 A3017 RMK A01 T00061037  RH  073%=      5-min Rain = 0
KSC1 131351Z 23007KT 01/M04 A3017 RMK A01 T00061037  RH  073%=      5-min Rain = 0
KSC1 131352Z 22006KT 01/M04 A3017 RMK A01 T00071037  RH  073%=      5-min Rain = 0
KSC1 131353Z 22006KT 01/M04 A3017 RMK A01 T00061038  RH  072%=      5-min Rain = 0
KSC1 131354Z 22006KT 00/M04 A3017 RMK A01 T00041039  RH  073%=      5-min Rain = 0
KSC1 131355Z 22005KT 00/M04 A3017 RMK A01 T00041039  RH  073%=      5-min Rain = 0
KSC1 131356Z 21005KT 00/M04 A3017 RMK A01 T00031039  RH  074%=      5-min Rain = 0
KSC1 131357Z 22005KT 00/M04 A3017 RMK A01 T00021039  RH  074%=      5-min Rain = 0
KSC1 131358Z 22004KT 00/M04 A3017 RMK A01 T00021039  RH  074%=      5-min Rain = 0
KSC1 131359Z 21004KT 00/M04 A3017 RMK A01 T00021039  RH  074%=      5-min Rain = 0
KSC1 131400Z 22004KT 00/M04 A3017 RMK A01 T00021039  RH  074%=      5-min Rain = 0
KSC1 131401Z 21003KT 00/M04 A3017 RMK A01 T00021039  RH  074%=      5-min Rain = 0
KSC1 131402Z 21001KT 00/M04 A3017 RMK A01 T00021039  RH  074%=      5-min Rain = 0
KSC1 131403Z 06001KT 00/04 A3017 RMK A01 T00-00-41  RH  074%=      5-min Rain = 0
KSC1 131404Z 05001KT M00/M04 A3017 RMK A01 T10031042  RH  075%=      5-min Rain = 0
KSC1 131405Z 05001KT M00/M04 A3017 RMK A01 T10041041  RH  076%=      5-min Rain = 0
KSC1 131406Z 04001KT M00/M04 A3017 RMK A01 T10041041  RH  076%=      5-min Rain = 0
KSC1 131407Z 03001KT M00/M04 A3017 RMK A01 T10041041  RH  076%=      5-min Rain = 0
KSC1 131408Z 04003KT M01/M04 A3017 RMK A01 T10051042  RH  076%=      5-min Rain = 0
KSC1 131409Z 04002KT M01/M04 A3017 RMK A01 T10061041  RH  077%=      5-min Rain = 0
KSC1 131410Z 03003KT M01/M04 A3017 RMK A01 T10061041  RH  077%=      5-min Rain = 0
KSC1 131411Z 04003KT M01/M04 A3017 RMK A01 T10061042  RH  077%=      5-min Rain = 0
KSC1 131412Z 04003KT M01/M04 A3017 RMK A01 T10061042  RH  077%=      5-min Rain = 0
KSC1 131413Z 04002KT M01/M04 A3017 RMK A01 T10061041  RH  077%=      5-min Rain = 0
KSC1 131414Z 05002KT M01/M04 A3017 RMK A01 T10061041  RH  077%=      5-min Rain = 0
KSC1 131415Z 05002KT M01/M04 A3017 RMK A01 T10061042  RH  077%=      5-min Rain = 0
KSC1 131416Z 07002KT M01/M04 A3017 RMK A01 T10071041  RH  077%=      5-min Rain = 0
KSC1 131417Z 07002KT M01/M04 A3017 RMK A01 T10071041  RH  078%=      5-min Rain = 0
KSC1 131418Z 08002KT M01/M04 A3017 RMK A01 T10051039  RH  078%=      5-min Rain = 0
KSC1 131419Z 07001KT M00/M04 A3017 RMK A01 T10041038  RH  078%=      5-min Rain = 0
KSC1 131420Z 06000KT M00/M04 A3017 RMK A01 T10031037  RH  078%=      5-min Rain = 0
KSC1 131421Z 06000KT M00/M04 A3017 RMK A01 T10011036  RH  077%=      5-min Rain = 0
KSC1 131422Z 06002KT 00/M04 A3017 RMK A01 T00011036  RH  076%=      5-min Rain = 0
KSC1 131423Z 06001KT 00/M04 A3017 RMK A01 T00011037  RH  075%=      5-min Rain = 0
KSC1 131424Z 07001KT 00/M04 A3017 RMK A01 T00021037  RH  075%=      5-min Rain = 0
KSC1 131425Z 08002KT 00/M04 A3017 RMK A01 T00041036  RH  074%=      5-min Rain = 0
KSC1 131426Z 09002KT 00/M04 A3017 RMK A01 T00041037  RH  074%=      5-min Rain = 0
KSC1 131427Z 07001KT 01/M04 A3017 RMK A01 T00051037  RH  074%=      5-min Rain = 0
KSC1 131428Z 04001KT 01/M04 A3017 RMK A01 T00051036  RH  074%=      5-min Rain = 0
KSC1 131429Z 04002KT 01/M04 A3017 RMK A01 T00051037  RH  073%=      5-min Rain = 0
KSC1 131430Z 04002KT 01/M04 A3017 RMK A01 T00061037  RH  073%=      5-min Rain = 0
KSC1 131431Z 03002KT 01/M04 A3017 RMK A01 T00061037  RH  073%=      5-min Rain = 0
KSC1 131432Z 02002KT 01/M04 A3017 RMK A01 T00061037  RH  073%=      5-min Rain = 0
KSC1 131433Z 01003KT 01/M04 A3017 RMK A01 T00051036  RH  074%=      5-min Rain = 0
KSC1 131434Z 00003KT 01/M04 A3017 RMK A01 T00051037  RH  073%=      5-min Rain = 0
KSC1 131435Z 35003KT 00/M04 A3017 RMK A01 T00041037  RH  074%=      5-min Rain = 0
KSC1 131436Z 35002KT 00/M04 A3017 RMK A01 T00041036  RH  075%=      5-min Rain = 0
KSC1 131437Z 35002KT 00/M04 A3017 RMK A01 T00041035  RH  075%=      5-min Rain = 0
KSC1 131438Z 36001KT 00/M04 A3017 RMK A01 T00041035  RH  075%=      5-min Rain = 0
KSC1 131439Z 35001KT 01/M03 A3017 RMK A01 T00051034  RH  075%=      5-min Rain = 0
KSC1 131440Z 35002KT 01/M03 A3017 RMK A01 T00061034  RH  075%=      5-min Rain = 0
KSC1 131441Z 00002KT 01/M04 A3017 RMK A01 T00061035  RH  074%=      5-min Rain = 0
KSC1 131442Z 35002KT 01/M03 A3017 RMK A01 T00071034  RH  074%=      5-min Rain = 0
KSC1 131443Z 35003KT 01/M03 A3017 RMK A01 T00071034  RH  074%=      5-min Rain = 0
KSC1 131444Z 34003KT 01/M03 A3017 RMK A01 T00071034  RH  074%=      5-min Rain = 0
KSC1 131445Z 34003KT 01/M04 A3017 RMK A01 T00061036  RH  074%=      5-min Rain = 0
KSC1 131446Z 34003KT 01/M04 A3017 RMK A01 T00051036  RH  074%=      5-min Rain = 0
KSC1 131447Z 35003KT 01/M04 A3017 RMK A01 T00051036  RH  074%=      5-min Rain = 0
KSC1 131448Z 36003KT 01/M04 A3017 RMK A01 T00051036  RH  074%=      5-min Rain = 0
KSC1 131449Z 00003KT 01/M04 A3017 RMK A01 T00051036  RH  074%=      5-min Rain = 0
KSC1 131450Z 36002KT 01/M03 A3017 RMK A01 T00061034  RH  075%=      5-min Rain = 0
KSC1 131451Z 01003KT 01/M03 A3017 RMK A01 T00061034  RH  074%=      5-min Rain = 0
KSC1 131452Z 01003KT 01/M03 A3018 RMK A01 T00061034  RH  075%=      5-min Rain = 0
KSC1 131453Z 01003KT 01/M03 A3018 RMK A01 T00071033  RH  075%=      5-min Rain = 0
KSC1 131454Z 02003KT 01/M03 A3018 RMK A01 T00071032  RH  075%=      5-min Rain = 0
KSC1 131455Z 01003KT 01/M03 A3018 RMK A01 T00071031  RH  076%=      5-min Rain = 0
KSC1 131456Z 02003KT 01/M03 A3018 RMK A01 T00071031  RH  076%=      5-min Rain = 0
KSC1 131457Z 01003KT 01/M03 A3018 RMK A01 T00071029  RH  077%=      5-min Rain = 0
KSC1 131458Z 00002KT 01/M03 A3018 RMK A01 T00081029  RH  077%=      5-min Rain = 0
KSC1 131459Z 02003KT 01/M03 A3018 RMK A01 T00081031  RH  075%=      5-min Rain = 0
KSC1 131500Z 01002KT 01/M03 A3018 RMK A01 T00081030  RH  076%=      5-min Rain = 0
KSC1 131501Z 03002KT 01/M03 A3018 RMK A01 T00081031  RH  075%=      5-min Rain = 0
KSC1 131502Z 03002KT 01/M03 A3018 RMK A01 T00081030  RH  075%=      5-min Rain = 0
KSC1 131503Z 03002KT 01/M03 A3018 RMK A01 T00081030  RH  075%=      5-min Rain = 0
KSC1 131504Z 03003KT 01/M03 A3018 RMK A01 T00091030  RH  075%=      5-min Rain = 0
KSC1 131505Z 03003KT 01/M03 A3018 RMK A01 T00101031  RH  074%=      5-min Rain = 0
KSC1 131506Z 02003KT 01/M03 A3018 RMK A01 T00101032  RH  073%=      5-min Rain = 0
KSC1 131507Z 03002KT 01/M03 A3018 RMK A01 T00111030  RH  074%=      5-min Rain = 0
KSC1 131508Z 02002KT 01/M03 A3018 RMK A01 T00121028  RH  074%=      5-min Rain = 0
KSC1 131509Z 01003KT 01/M03 A3018 RMK A01 T00121029  RH  074%=      5-min Rain = 0
KSC1 131510Z 03003KT 01/M03 A3018 RMK A01 T00131031  RH  073%=      5-min Rain = 0
KSC1 131511Z 03003KT 01/M03 A3018 RMK A01 T00131030  RH  073%=      5-min Rain = 0
KSC1 131512Z 03003KT 01/M03 A3018 RMK A01 T00141029  RH  073%=      5-min Rain = 0
KSC1 131513Z 02003KT 02/M03 A3018 RMK A01 T00151030  RH  072%=      5-min Rain = 0
KSC1 131514Z 03003KT 02/M03 A3018 RMK A01 T00161029  RH  072%=      5-min Rain = 0
KSC1 131515Z 03003KT 02/M03 A3018 RMK A01 T00171029  RH  071%=      5-min Rain = 0
KSC1 131516Z 02003KT 02/M03 A3018 RMK A01 T00181030  RH  071%=      5-min Rain = 0
KSC1 131517Z 02003KT 02/M03 A3018 RMK A01 T00201028  RH  071%=      5-min Rain = 0
KSC1 131518Z 01003KT 02/M03 A3018 RMK A01 T00201027  RH  071%=      5-min Rain = 0
KSC1 131519Z 35002KT 02/M03 A3017 RMK A01 T00211028  RH  070%=      5-min Rain = 0
KSC1 131520Z 03002KT 02/M03 A3017 RMK A01 T00211030  RH  069%=      5-min Rain = 0
KSC1 131521Z 04003KT 02/M03 A3017 RMK A01 T00221030  RH  069%=      5-min Rain = 0
KSC1 131522Z 04002KT 02/M03 A3017 RMK A01 T00231028  RH  069%=      5-min Rain = 0
KSC1 131523Z 07002KT 02/M03 A3017 RMK A01 T00241030  RH  068%=      5-min Rain = 0
KSC1 131524Z 06003KT 02/M03 A3017 RMK A01 T00241030  RH  067%=      5-min Rain = 0
KSC1 131525Z 05002KT 03/M03 A3017 RMK A01 T00251031  RH  066%=      5-min Rain = 0
KSC1 131526Z 05003KT 03/M03 A3017 RMK A01 T00251030  RH  067%=      5-min Rain = 0
KSC1 131527Z 05003KT 03/M03 A3017 RMK A01 T00251031  RH  066%=      5-min Rain = 0
KSC1 131528Z 04003KT 03/M03 A3017 RMK A01 T00251030  RH  067%=      5-min Rain = 0
KSC1 131529Z 04002KT 03/M03 A3017 RMK A01 T00251029  RH  067%=      5-min Rain = 0
KSC1 131530Z 04003KT 03/M03 A3017 RMK A01 T00261029  RH  067%=      5-min Rain = 0
KSC1 131531Z 04004KT 03/M03 A3017 RMK A01 T00271028  RH  067%=      5-min Rain = 0
KSC1 131532Z 04004KT 03/M03 A3017 RMK A01 T00271027  RH  067%=      5-min Rain = 0
KSC1 131533Z 04004KT 03/M03 A3017 RMK A01 T00281026  RH  068%=      5-min Rain = 0
KSC1 131534Z 04003KT 03/M03 A3017 RMK A01 T00291027  RH  067%=      5-min Rain = 0
KSC1 131535Z 04003KT 03/M03 A3017 RMK A01 T00291027  RH  067%=      5-min Rain = 0
KSC1 131536Z 03003KT 03/M02 A3017 RMK A01 T00301024  RH  068%=      5-min Rain = 0
KSC1 131537Z 03003KT 03/M03 A3017 RMK A01 T00321025  RH  066%=      5-min Rain = 0
KSC1 131538Z 03003KT 03/M03 A3017 RMK A01 T00321027  RH  065%=      5-min Rain = 0
KSC1 131539Z 02003KT 03/M03 A3017 RMK A01 T00331025  RH  066%=      5-min Rain = 0
KSC1 131540Z 02002KT 03/M03 A3017 RMK A01 T00331025  RH  065%=      5-min Rain = 0
KSC1 131541Z 03003KT 03/M03 A3017 RMK A01 T00341026  RH  065%=      5-min Rain = 0
KSC1 131542Z 03002KT 03/M03 A3017 RMK A01 T00341026  RH  065%=      5-min Rain = 0
KSC1 131543Z 03002KT 04/M03 A3017 RMK A01 T00351027  RH  064%=      5-min Rain = 0
KSC1 131544Z 03002KT 04/M03 A3017 RMK A01 T00351026  RH  064%=      5-min Rain = 0
KSC1 131545Z 35003KT 04/M02 A3017 RMK A01 T00371022  RH  065%=      5-min Rain = 0
KSC1 131546Z 33001KT 04/M02 A3017 RMK A01 T00381021  RH  065%=      5-min Rain = 0
KSC1 131547Z 31001KT 04/M02 A3017 RMK A01 T00391023  RH  064%=      5-min Rain = 0
KSC1 131548Z 31002KT 04/M03 A3017 RMK A01 T00401026  RH  062%=      5-min Rain = 0
KSC1 131549Z 33001KT 04/M03 A3017 RMK A01 T00411026  RH  062%=      5-min Rain = 0
KSC1 131550Z 33001KT 04/M02 A3017 RMK A01 T00411024  RH  063%=      5-min Rain = 0
KSC1 131551Z 32001KT 04/M02 A3017 RMK A01 T00421023  RH  063%=      5-min Rain = 0
KSC1 131552Z 30002KT 04/M02 A3017 RMK A01 T00421023  RH  063%=      5-min Rain = 0
KSC1 131553Z 27005KT 04/M02 A3017 RMK A01 T00441023  RH  062%=      5-min Rain = 0
KSC1 131554Z 26006KT 05/M03 A3018 RMK A01 T00471028  RH  058%=      5-min Rain = 0
KSC1 131555Z 26006KT 05/M03 A3018 RMK A01 T00521032  RH  055%=      5-min Rain = 0
KSC1 131556Z 24010KT 06/M03 A3018 RMK A01 T00551034  RH  053%=      5-min Rain = 0
KSC1 131557Z 23009KT 06/M04 A3017 RMK A01 T00571038  RH  051%=      5-min Rain = 0
KSC1 131558Z 26007KT 06/M04 A3017 RMK A01 T00581041  RH  049%=      5-min Rain = 0
KSC1 131559Z 25006KT 06/M04 A3017 RMK A01 T00581037  RH  050%=      5-min Rain = 0
KSC1 131600Z 26005KT 06/M03 A3017 RMK A01 T00581034  RH  051%=      5-min Rain = 0
KSC1 131601Z 25006KT 06/M03 A3017 RMK A01 T00591033  RH  052%=      5-min Rain = 0
KSC1 131602Z 25009KT 06/M03 A3017 RMK A01 T00591033  RH  052%=      5-min Rain = 0
KSC1 131603Z 25007KT 06/M04 A3017 RMK A01 T00591035  RH  051%=      5-min Rain = 0
KSC1 131604Z 26008KT 06/M03 A3017 RMK A01 T00591034  RH  051%=      5-min Rain = 0
KSC1 131605Z 25007KT 06/M03 A3017 RMK A01 T00591034  RH  051%=      5-min Rain = 0
KSC1 131606Z 26006KT 06/M03 A3017 RMK A01 T00591031  RH  053%=      5-min Rain = 0
KSC1 131607Z 25007KT 06/M03 A3017 RMK A01 T00601031  RH  052%=      5-min Rain = 0
KSC1 131608Z 25009KT 06/M03 A3017 RMK A01 T00601033  RH  051%=      5-min Rain = 0
KSC1 131609Z 26010KT 06/M04 A3017 RMK A01 T00601035  RH  051%=      5-min Rain = 0
KSC1 131610Z 26008KT 06/M04 A3018 RMK A01 T00601036  RH  050%=      5-min Rain = 0
KSC1 131611Z 25008KT 06/M03 A3018 RMK A01 T00601033  RH  051%=      5-min Rain = 0
KSC1 131612Z 25007KT 06/M03 A3018 RMK A01 T00611031  RH  052%=      5-min Rain = 0
KSC1 131613Z 25009KT 06/M03 A3018 RMK A01 T00611029  RH  052%=      5-min Rain = 0
KSC1 131614Z 24010KT 06/M03 A3018 RMK A01 T00621032  RH  051%=      5-min Rain = 0
KSC1 131615Z 25008KT 06/M03 A3018 RMK A01 T00621033  RH  051%=      5-min Rain = 0
KSC1 131616Z 25008KT 06/M03 A3018 RMK A01 T00631029  RH  052%=      5-min Rain = 0
KSC1 131617Z 25010KT 06/M03 A3018 RMK A01 T00631029  RH  052%=      5-min Rain = 0
KSC1 131618Z 25008KT 06/M03 A3018 RMK A01 T00631030  RH  051%=      5-min Rain = 0
KSC1 131619Z 25008KT 06/M03 A3018 RMK A01 T00641029  RH  051%=      5-min Rain = 0
KSC1 131620Z 25008KT 07/M03 A3018 RMK A01 T00651029  RH  051%=      5-min Rain = 0
KSC1 131621Z 25009KT 07/M03 A3018 RMK A01 T00651031  RH  050%=      5-min Rain = 0
KSC1 131622Z 25007KT 07/M03 A3018 RMK A01 T00651032  RH  050%=      5-min Rain = 0
KSC1 131623Z 25007KT 07/M03 A3018 RMK A01 T00661031  RH  050%=      5-min Rain = 0
KSC1 131624Z 25006KT 07/M03 A3018 RMK A01 T00671030  RH  050%=      5-min Rain = 0
KSC1 131625Z 26006KT 07/M03 A3018 RMK A01 T00671030  RH  050%=      5-min Rain = 0
KSC1 131626Z 25008KT 07/M03 A3018 RMK A01 T00671029  RH  050%=      5-min Rain = 0
KSC1 131627Z 26007KT 07/M03 A3018 RMK A01 T00691030  RH  050%=      5-min Rain = 0
KSC1 131628Z 25007KT 07/M03 A3018 RMK A01 T00691030  RH  049%=      5-min Rain = 0
KSC1 131629Z 26008KT 07/M03 A3018 RMK A01 T00691030  RH  049%=      5-min Rain = 0
KSC1 131630Z 26007KT 07/M03 A3018 RMK A01 T00701028  RH  049%=      5-min Rain = 0
KSC1 131631Z 27008KT 07/M03 A3018 RMK A01 T00711028  RH  049%=      5-min Rain = 0
KSC1 131632Z 25007KT 07/M03 A3018 RMK A01 T00711029  RH  049%=      5-min Rain = 0
KSC1 131633Z 27007KT 07/M03 A3018 RMK A01 T00721029  RH  049%=      5-min Rain = 0
KSC1 131634Z 26007KT 07/M03 A3018 RMK A01 T00721032  RH  047%=      5-min Rain = 0
KSC1 131635Z 26007KT 07/M03 A3018 RMK A01 T00731029  RH  048%=      5-min Rain = 0
KSC1 131636Z 25011KT 07/M03 A3018 RMK A01 T00731028  RH  049%=      5-min Rain = 0
KSC1 131637Z 26007KT 07/M03 A3018 RMK A01 T00731030  RH  048%=      5-min Rain = 0
KSC1 131638Z 27009KT 07/M03 A3018 RMK A01 T00741027  RH  048%=      5-min Rain = 0
KSC1 131639Z 27005KT 07/M03 A3018 RMK A01 T00741031  RH  047%=      5-min Rain = 0
KSC1 131640Z 28006KT 07/M03 A3018 RMK A01 T00741027  RH  049%=      5-min Rain = 0
KSC1 131641Z 28005KT 08/M03 A3018 RMK A01 T00751027  RH  048%=      5-min Rain = 0
KSC1 131642Z 27005KT 08/M02 A3018 RMK A01 T00751024  RH  049%=      5-min Rain = 0
KSC1 131643Z 27006KT 08/M02 A3017 RMK A01 T00751024  RH  049%=      5-min Rain = 0
KSC1 131644Z 27006KT 08/M02 A3017 RMK A01 T00761024  RH  049%=      5-min Rain = 0
KSC1 131645Z 28007KT 08/M02 A3017 RMK A01 T00761023  RH  050%=      5-min Rain = 0
KSC1 131646Z 28007KT 08/M03 A3017 RMK A01 T00761025  RH  049%=      5-min Rain = 0
KSC1 131647Z 28006KT 08/M03 A3017 RMK A01 T00761025  RH  049%=      5-min Rain = 0
KSC1 131648Z 27007KT 08/M02 A3017 RMK A01 T00761022  RH  050%=      5-min Rain = 0
KSC1 131649Z 27006KT 08/M02 A3017 RMK A01 T00761022  RH  050%=      5-min Rain = 0
KSC1 131650Z 28007KT 08/M02 A3017 RMK A01 T00761022  RH  050%=      5-min Rain = 0
KSC1 131651Z 27007KT 08/M02 A3017 RMK A01 T00771020  RH  050%=      5-min Rain = 0
KSC1 131652Z 27008KT 08/M02 A3017 RMK A01 T00781022  RH  049%=      5-min Rain = 0
KSC1 131653Z 27008KT 08/M03 A3017 RMK A01 T00781025  RH  048%=      5-min Rain = 0
KSC1 131654Z 26008KT 08/M03 A3017 RMK A01 T00791025  RH  048%=      5-min Rain = 0
KSC1 131655Z 27006KT 08/M02 A3017 RMK A01 T00801021  RH  049%=      5-min Rain = 0
KSC1 131656Z 27008KT 08/M02 A3017 RMK A01 T00811018  RH  050%=      5-min Rain = 0
KSC1 131657Z 27007KT 08/M02 A3017 RMK A01 T00821017  RH  050%=      5-min Rain = 0
KSC1 131658Z 27006KT 08/M02 A3017 RMK A01 T00831018  RH  049%=      5-min Rain = 0
KSC1 131659Z 27006KT 08/M02 A3017 RMK A01 T00831018  RH  049%=      5-min Rain = 0
KSC1 131700Z 26008KT 08/M02 A3017 RMK A01 T00831021  RH  048%=      5-min Rain = 0
KSC1 131701Z 27006KT 08/M02 A3016 RMK A01 T00841018  RH  049%=      5-min Rain = 0
KSC1 131702Z 27006KT 09/M02 A3016 RMK A01 T00851015  RH  049%=      5-min Rain = 0
KSC1 131703Z 28008KT 09/M02 A3016 RMK A01 T00861015  RH  049%=      5-min Rain = 0
KSC1 131704Z 27008G13KT 09/M02 A3016 RMK A01 T00871018  RH  047%=      5-min Rain = 0
KSC1 131705Z 27005KT 09/M02 A3016 RMK A01 T00871018  RH  047%=      5-min Rain = 0
KSC1 131706Z 25007KT 09/M02 A3016 RMK A01 T00891015  RH  048%=      5-min Rain = 0
KSC1 131707Z 26007KT 09/M02 A3016 RMK A01 T00891021  RH  046%=      5-min Rain = 0
KSC1 131708Z 26005KT 09/M02 A3016 RMK A01 T00891022  RH  046%=      5-min Rain = 0
KSC1 131709Z 26005KT 09/M01 A3016 RMK A01 T00911014  RH  048%=      5-min Rain = 0
KSC1 131710Z 27006KT 09/M01 A3016 RMK A01 T00921014  RH  048%=      5-min Rain = 0
KSC1 131711Z 26009KT 09/M02 A3016 RMK A01 T00931015  RH  047%=      5-min Rain = 0
KSC1 131712Z 26008KT 09/M02 A3016 RMK A01 T00931022  RH  045%=      5-min Rain = 0
KSC1 131713Z 27006KT 09/M02 A3016 RMK A01 T00921023  RH  044%=      5-min Rain = 0
KSC1 131714Z 26005KT 09/M02 A3016 RMK A01 T00921020  RH  045%=      5-min Rain = 0
KSC1 131715Z 25005KT 09/M02 A3016 RMK A01 T00931023  RH  044%=      5-min Rain = 0
KSC1 131716Z 25005KT 09/M02 A3016 RMK A01 T00931022  RH  044%=      5-min Rain = 0
KSC1 131717Z 25005KT 09/M02 A3016 RMK A01 T00941021  RH  044%=      5-min Rain = 0
KSC1 131718Z 26004KT 10/M02 A3016 RMK A01 T00951018  RH  045%=      5-min Rain = 0
KSC1 131719Z 25003KT 10/M01 A3016 RMK A01 T00971011  RH  047%=      5-min Rain = 0
KSC1 131720Z 25004KT 10/M01 A3016 RMK A01 T00981013  RH  046%=      5-min Rain = 0
KSC1 131721Z 27004KT 10/M02 A3016 RMK A01 T00991015  RH  045%=      5-min Rain = 0
KSC1 131722Z 26006KT 10/M02 A3016 RMK A01 T01001016  RH  045%=      5-min Rain = 0
KSC1 131723Z 25006KT 10/M02 A3015 RMK A01 T00991021  RH  043%=      5-min Rain = 0
KSC1 131724Z 26007KT 10/M02 A3015 RMK A01 T00991019  RH  044%=      5-min Rain = 0
KSC1 131725Z 26007KT 10/M02 A3015 RMK A01 T00991023  RH  043%=      5-min Rain = 0
KSC1 131726Z 24009G14KT 10/M02 A3015 RMK A01 T00991022  RH  043%=      5-min Rain = 0
KSC1 131727Z 25010KT 10/M03 A3015 RMK A01 T00991026  RH  041%=      5-min Rain = 0
KSC1 131728Z 25006KT 10/M02 A3015 RMK A01 T00991021  RH  043%=      5-min Rain = 0
KSC1 131729Z 26008G13KT 10/M02 A3015 RMK A01 T01001019  RH  043%=      5-min Rain = 0
KSC1 131730Z 25012KT 10/M02 A3015 RMK A01 T01011023  RH  042%=      5-min Rain = 0
KSC1 131731Z 25010KT 10/M03 A3015 RMK A01 T01011028  RH  040%=      5-min Rain = 0
KSC1 131732Z 25011G16KT 10/M03 A3014 RMK A01 T01011027  RH  041%=      5-min Rain = 0
KSC1 131733Z 25011G16KT 10/M03 A3014 RMK A01 T01011026  RH  041%=      5-min Rain = 0
KSC1 131734Z 25009KT 10/M03 A3014 RMK A01 T01011027  RH  041%=      5-min Rain = 0
KSC1 131735Z 25007G12KT 10/M03 A3014 RMK A01 T01021025  RH  041%=      5-min Rain = 0
KSC1 131736Z 24011KT 10/M02 A3014 RMK A01 T01031023  RH  041%=      5-min Rain = 0
KSC1 131737Z 25009KT 10/M02 A3014 RMK A01 T01041022  RH  041%=      5-min Rain = 0
KSC1 131738Z 23011KT 11/M02 A3014 RMK A01 T01051021  RH  041%=      5-min Rain = 0
KSC1 131739Z 25007KT 11/M02 A3014 RMK A01 T01051020  RH  042%=      5-min Rain = 0
KSC1 131740Z 25009KT 11/M02 A3014 RMK A01 T01061018  RH  042%=      5-min Rain = 0
KSC1 131741Z 24011KT 11/M02 A3014 RMK A01 T01061019  RH  042%=      5-min Rain = 0
KSC1 131742Z 22008KT 11/M02 A3014 RMK A01 T01061023  RH  041%=      5-min Rain = 0
KSC1 131743Z 24009KT 11/M02 A3014 RMK A01 T01061019  RH  042%=      5-min Rain = 0
KSC1 131744Z 23012KT 11/M02 A3014 RMK A01 T01061019  RH  042%=      5-min Rain = 0
KSC1 131745Z 24008KT 11/M02 A3014 RMK A01 T01061022  RH  041%=      5-min Rain = 0
KSC1 131746Z 26008KT 11/M02 A3013 RMK A01 T01061021  RH  041%=      5-min Rain = 0
KSC1 131747Z 24011KT 11/M02 A3013 RMK A01 T01061018  RH  042%=      5-min Rain = 0
KSC1 131748Z 23010KT 11/M02 A3013 RMK A01 T01071023  RH  040%=      5-min Rain = 0
KSC1 131749Z 24012G18KT 11/M02 A3013 RMK A01 T01071019  RH  041%=      5-min Rain = 0
KSC1 131750Z 24013G18KT 11/M03 A3013 RMK A01 T01071026  RH  039%=      5-min Rain = 0
KSC1 131751Z 25009G15KT 11/M02 A3013 RMK A01 T01061023  RH  040%=      5-min Rain = 0
KSC1 131752Z 25014KT 11/M02 A3013 RMK A01 T01071020  RH  041%=      5-min Rain = 0
KSC1 131753Z 25013G18KT 11/M02 A3013 RMK A01 T01071024  RH  040%=      5-min Rain = 0
KSC1 131754Z 25010KT 11/M02 A3013 RMK A01 T01081021  RH  041%=      5-min Rain = 0
KSC1 131755Z 25012G18KT 11/M02 A3013 RMK A01 T01101018  RH  041%=      5-min Rain = 0
KSC1 131756Z 23010KT 11/M02 A3013 RMK A01 T01101022  RH  040%=      5-min Rain = 0
KSC1 131757Z 24009KT 11/M02 A3013 RMK A01 T01111021  RH  040%=      5-min Rain = 0
KSC1 131758Z 25011G17KT 11/M02 A3012 RMK A01 T01131018  RH  040%=      5-min Rain = 0
KSC1 131759Z 24014KT 11/M02 A3012 RMK A01 T01131023  RH  039%=      5-min Rain = 0
KSC1 131800Z 25015KT 11/M03 A3012 RMK A01 T01131029  RH  037%=      5-min Rain = 0
KSC1 131801Z 25014KT 11/M03 A3012 RMK A01 T01131028  RH  037%=      5-min Rain = 0
KSC1 131802Z 25016KT 11/M03 A3012 RMK A01 T01131025  RH  038%=      5-min Rain = 0
KSC1 131803Z 25010KT 11/M02 A3012 RMK A01 T01131024  RH  038%=      5-min Rain = 0
KSC1 131804Z 24009KT 12/M02 A3012 RMK A01 T01151021  RH  039%=      5-min Rain = 0
KSC1 131805Z 24012KT 12/M02 A3012 RMK A01 T01161019  RH  039%=      5-min Rain = 0
KSC1 131806Z 25010KT 12/M02 A3012 RMK A01 T01171019  RH  039%=      5-min Rain = 0
KSC1 131807Z 24010KT 12/M01 A3012 RMK A01 T01181014  RH  040%=      5-min Rain = 0
KSC1 131808Z 24012G17KT 12/M02 A3012 RMK A01 T01191015  RH  039%=      5-min Rain = 0
KSC1 131809Z 24016G23KT 12/M02 A3012 RMK A01 T01191020  RH  038%=      5-min Rain = 0
KSC1 131810Z 24017KT 12/M03 A3011 RMK A01 T01191027  RH  036%=      5-min Rain = 0
KSC1 131811Z 24016KT 12/M03 A3011 RMK A01 T01171031  RH  035%=      5-min Rain = 0
KSC1 131812Z 25015G22KT 12/M03 A3011 RMK A01 T01171030  RH  036%=      5-min Rain = 0
KSC1 131813Z 25015KT 12/M03 A3011 RMK A01 T01171028  RH  036%=      5-min Rain = 0
KSC1 131814Z 25014KT 12/M03 A3011 RMK A01 T01171027  RH  037%=      5-min Rain = 0
KSC1 131815Z 24014KT 12/M02 A3011 RMK A01 T01191023  RH  037%=      5-min Rain = 0
KSC1 131816Z 23015KT 12/M03 A3011 RMK A01 T01191025  RH  036%=      5-min Rain = 0
KSC1 131817Z 24016KT 12/M03 A3011 RMK A01 T01201026  RH  036%=      5-min Rain = 0
KSC1 131818Z 25015KT 12/M03 A3011 RMK A01 T01201031  RH  035%=      5-min Rain = 0
KSC1 131819Z 24014KT 12/M03 A3011 RMK A01 T01201028  RH  036%=      5-min Rain = 0
KSC1 131820Z 23015G21KT 12/M03 A301 RMK A01 T01201028  RH  035%=      5-min Rain = 0
KSC1 131821Z 24018KT 12/M03 A301 RMK A01 T01211034  RH  034%=      5-min Rain = 0
KSC1 131822Z 25013G18KT 12/M03 A301 RMK A01 T01201034  RH  034%=      5-min Rain = 0
KSC1 131823Z 25014KT 12/M03 A301 RMK A01 T01201034  RH  034%=      5-min Rain = 0
KSC1 131824Z 25015KT 12/M03 A301 RMK A01 T01211033  RH  034%=      5-min Rain = 0
KSC1 131825Z 25014KT 12/M03 A301 RMK A01 T01211030  RH  035%=      5-min Rain = 0
KSC1 131826Z 25011KT 12/M03 A301 RMK A01 T01221027  RH  035%=      5-min Rain = 0
KSC1 131827Z 26015KT 12/M03 A301 RMK A01 T01231026  RH  035%=      5-min Rain = 0
KSC1 131828Z 26011KT 12/M03 A301 RMK A01 T01231028  RH  035%=      5-min Rain = 0
KSC1 131829Z 25012KT 12/M02 A301 RMK A01 T01241022  RH  036%=      5-min Rain = 0
KSC1 131830Z 26014KT 13/M02 A301 RMK A01 T01261023  RH  036%=      5-min Rain = 0
KSC1 131831Z 26014G19KT 13/M02 A3009 RMK A01 T01261024  RH  035%=      5-min Rain = 0
KSC1 131832Z 26012KT 13/M02 A3009 RMK A01 T01251020  RH  037%=      5-min Rain = 0
KSC1 131833Z 26011KT 13/M02 A3009 RMK A01 T01261017  RH  037%=      5-min Rain = 0
KSC1 131834Z 25012KT 13/M02 A3009 RMK A01 T01271019  RH  036%=      5-min Rain = 0
KSC1 131835Z 25011KT 13/M02 A3009 RMK A01 T01261020  RH  036%=      5-min Rain = 0
KSC1 131836Z 25010KT 13/M02 A3009 RMK A01 T01271015  RH  037%=      5-min Rain = 0
KSC1 131837Z 26010G15KT 13/M01 A3009 RMK A01 T01291012  RH  038%=      5-min Rain = 0
KSC1 131838Z 26014KT 13/M02 A3009 RMK A01 T01301018  RH  036%=      5-min Rain = 0
KSC1 131839Z 25015KT 13/M02 A3009 RMK A01 T01291021  RH  035%=      5-min Rain = 0
KSC1 131840Z 24014KT 13/M02 A3009 RMK A01 T01271024  RH  035%=      5-min Rain = 0
KSC1 131841Z 24015KT 13/M02 A3009 RMK A01 T01261022  RH  036%=      5-min Rain = 0
KSC1 131842Z 24014KT 13/M02 A3009 RMK A01 T01261022  RH  036%=      5-min Rain = 0
KSC1 131843Z 25016KT 13/M03 A3009 RMK A01 T01251026  RH  035%=      5-min Rain = 0
KSC1 131844Z 25016KT 12/M03 A3009 RMK A01 T01241029  RH  034%=      5-min Rain = 0
KSC1 131845Z 25014KT 12/M03 A3009 RMK A01 T01231026  RH  035%=      5-min Rain = 0
KSC1 131846Z 26015G21KT 12/M03 A3009 RMK A01 T01231027  RH  035%=      5-min Rain = 0
KSC1 131847Z 25019KT 12/M03 A3009 RMK A01 T01221029  RH  035%=      5-min Rain = 0
KSC1 131848Z 25016KT 12/M03 A3009 RMK A01 T01201031  RH  035%=      5-min Rain = 0
KSC1 131849Z 25011KT 12/M03 A3009 RMK A01 T01201027  RH  036%=      5-min Rain = 0
KSC1 131850Z 25012KT 12/M02 A3009 RMK A01 T01201024  RH  036%=      5-min Rain = 0
KSC1 131851Z 25010KT 12/M02 A3009 RMK A01 T01211020  RH  037%=      5-min Rain = 0
KSC1 131852Z 25010KT 12/M02 A3008 RMK A01 T01231018  RH  037%=      5-min Rain = 0
KSC1 131853Z 25010KT 13/M01 A3008 RMK A01 T01261014  RH  038%=      5-min Rain = 0
KSC1 131854Z 25014KT 13/M02 A3008 RMK A01 T01281017  RH  037%=      5-min Rain = 0
KSC1 131855Z 25012KT 13/M02 A3008 RMK A01 T01281018  RH  036%=      5-min Rain = 0
KSC1 131856Z 25011KT 13/M02 A3008 RMK A01 T01291020  RH  036%=      5-min Rain = 0
KSC1 131857Z 26015KT 13/M02 A3008 RMK A01 T01291022  RH  035%=      5-min Rain = 0
KSC1 131858Z 26013KT 13/M02 A3008 RMK A01 T01271023  RH  035%=      5-min Rain = 0
KSC1 131859Z 25014KT 13/M02 A3008 RMK A01 T01271018  RH  036%=      5-min Rain = 0
KSC1 131900Z 25012KT 13/M02 A3008 RMK A01 T01271020  RH  036%=      5-min Rain = 0
KSC1 131901Z 23013KT 13/M02 A3008 RMK A01 T01281020  RH  036%=      5-min Rain = 0
KSC1 131902Z 25013KT 13/M02 A3008 RMK A01 T01281019  RH  036%=      5-min Rain = 0
KSC1 131903Z 24009KT 13/M02 A3008 RMK A01 T01291018  RH  036%=      5-min Rain = 0
KSC1 131904Z 24013G18KT 13/M01 A3008 RMK A01 T01321014  RH  037%=      5-min Rain = 0
KSC1 131905Z 24012KT 13/M02 A3008 RMK A01 T01321017  RH  035%=      5-min Rain = 0
KSC1 131906Z 24012KT 13/M01 A3008 RMK A01 T01331014  RH  036%=      5-min Rain = 0
KSC1 131907Z 25013KT 13/M02 A3008 RMK A01 T01341016  RH  035%=      5-min Rain = 0
KSC1 131908Z 25014KT 13/M02 A3008 RMK A01 T01341018  RH  035%=      5-min Rain = 0
KSC1 131909Z 26011KT 13/M02 A3008 RMK A01 T01331018  RH  035%=      5-min Rain = 0
KSC1 131910Z 25011KT 13/M02 A3008 RMK A01 T01341017  RH  035%=      5-min Rain = 0
KSC1 131911Z 25010KT 14/M01 A3008 RMK A01 T01371013  RH  036%=      5-min Rain = 0
KSC1 131912Z 25012KT 14/M02 A3008 RMK A01 T01401017  RH  034%=      5-min Rain = 0
KSC1 131913Z 27012KT 14/M02 A3008 RMK A01 T01401021  RH  033%=      5-min Rain = 0
KSC1 131914Z 24014G19KT 14/M02 A3008 RMK A01 T01401019  RH  033%=      5-min Rain = 0
KSC1 131915Z 25012G20KT 14/M03 A3008 RMK A01 T01401027  RH  031%=      5-min Rain = 0
KSC1 131916Z 23017KT 14/M03 A3008 RMK A01 T01401028  RH  031%=      5-min Rain = 0
KSC1 131917Z 24018KT 14/M03 A3008 RMK A01 T01401031  RH  030%=      5-min Rain = 0
KSC1 131918Z 25015G21KT 14/M04 A3007 RMK A01 T01381038  RH  029%=      5-min Rain = 0
KSC1 131919Z 24016G21KT 14/M03 A3007 RMK A01 T01381031  RH  031%=      5-min Rain = 0
KSC1 131920Z 24016KT 14/M04 A3007 RMK A01 T01381035  RH  030%=      5-min Rain = 0
KSC1 131921Z 24015KT 14/M03 A3007 RMK A01 T01381033  RH  030%=      5-min Rain = 0
KSC1 131922Z 24011KT 14/M03 A3007 RMK A01 T01391032  RH  030%=      5-min Rain = 0
KSC1 131923Z 24013KT 14/M03 A3007 RMK A01 T01411028  RH  031%=      5-min Rain = 0
KSC1 131924Z 25015KT 14/M03 A3007 RMK A01 T01411032  RH  030%=      5-min Rain = 0
KSC1 131925Z 26013G18KT 14/M03 A3007 RMK A01 T01401028  RH  031%=      5-min Rain = 0
KSC1 131926Z 25013KT 14/M03 A3007 RMK A01 T01401028  RH  031%=      5-min Rain = 0
KSC1 131927Z 25013KT 14/M03 A3007 RMK A01 T01411026  RH  031%=      5-min Rain = 0
KSC1 131928Z 23012KT 14/M03 A3007 RMK A01 T01411028  RH  031%=      5-min Rain = 0
KSC1 131929Z 24011KT 14/M03 A3007 RMK A01 T01421027  RH  031%=      5-min Rain = 0
KSC1 131930Z 24015KT 14/M03 A3006 RMK A01 T01431026  RH  031%=      5-min Rain = 0
KSC1 131931Z 24013KT 14/M03 A3006 RMK A01 T01421029  RH  031%=      5-min Rain = 0
KSC1 131932Z 25012KT 14/M02 A3006 RMK A01 T01411024  RH  032%=      5-min Rain = 0
KSC1 131933Z 25012KT 14/M02 A3006 RMK A01 T01431021  RH  032%=      5-min Rain = 0
KSC1 131934Z 25012G17KT 14/M02 A3006 RMK A01 T01441022  RH  032%=      5-min Rain = 0
KSC1 131935Z 25011KT 14/M02 A3006 RMK A01 T01441022  RH  032%=      5-min Rain = 0
KSC1 131936Z 24010KT 14/M02 A3006 RMK A01 T01441020  RH  032%=      5-min Rain = 0
KSC1 131937Z 24009KT 15/M02 A3006 RMK A01 T01451019  RH  032%=      5-min Rain = 0
KSC1 131938Z 24010KT 15/M01 A3005 RMK A01 T01471014  RH  033%=      5-min Rain = 0
KSC1 131939Z 24013KT 15/M02 A3005 RMK A01 T01471020  RH  032%=      5-min Rain = 0
KSC1 131940Z 25013KT 14/M02 A3005 RMK A01 T01441023  RH  032%=      5-min Rain = 0
KSC1 131941Z 24010G15KT 14/M02 A3005 RMK A01 T01421020  RH  033%=      5-min Rain = 0
KSC1 131942Z 25014KT 14/M02 A3005 RMK A01 T01431021  RH  032%=      5-min Rain = 0
KSC1 131943Z 24011KT 14/M02 A3005 RMK A01 T01411024  RH  032%=      5-min Rain = 0
KSC1 131944Z 24006KT 14/M02 A3005 RMK A01 T01411018  RH  033%=      5-min Rain = 0
KSC1 131945Z 24008KT 14/M01 A3005 RMK A01 T01421014  RH  034%=      5-min Rain = 0
KSC1 131946Z 23009KT 14/M02 A3005 RMK A01 T01431017  RH  033%=      5-min Rain = 0
KSC1 131947Z 24010KT 14/M02 A3005 RMK A01 T01431018  RH  033%=      5-min Rain = 0
KSC1 131948Z 23011KT 14/M02 A3005 RMK A01 T01421020  RH  033%=      5-min Rain = 0
KSC1 131949Z 23011KT 14/M02 A3005 RMK A01 T01411020  RH  033%=      5-min Rain = 0
KSC1 131950Z 24013KT 14/M02 A3005 RMK A01 T01411023  RH  032%=      5-min Rain = 0
KSC1 131951Z 23012KT 14/M02 A3004 RMK A01 T01401022  RH  033%=      5-min Rain = 0
KSC1 131952Z 24012KT 14/M02 A3004 RMK A01 T01411023  RH  032%=      5-min Rain = 0
KSC1 131953Z 25011KT 14/M02 A3004 RMK A01 T01411023  RH  032%=      5-min Rain = 0
KSC1 131954Z 24012KT 14/M02 A3004 RMK A01 T01421020  RH  033%=      5-min Rain = 0
KSC1 131955Z 23012KT 14/M02 A3004 RMK A01 T01431022  RH  032%=      5-min Rain = 0
KSC1 131956Z 22011G16KT 14/M02 A3004 RMK A01 T01421019  RH  033%=      5-min Rain = 0
KSC1 131957Z 22013G18KT 14/M02 A3004 RMK A01 T01441016  RH  033%=      5-min Rain = 0
KSC1 131958Z 22013KT 14/M02 A3004 RMK A01 T01441018  RH  033%=      5-min Rain = 0
KSC1 131959Z 22013KT 14/M02 A3004 RMK A01 T01441018  RH  033%=      5-min Rain = 0
KSC1 132000Z 23011KT 14/M02 A3004 RMK A01 T01431019  RH  033%=      5-min Rain = 0
KSC1 132001Z 23009KT 14/M02 A3004 RMK A01 T01441018  RH  033%=      5-min Rain = 0
KSC1 132002Z 23011KT 15/M02 A3003 RMK A01 T01451017  RH  033%=      5-min Rain = 0
KSC1 132003Z 24014KT 15/M02 A3003 RMK A01 T01471017  RH  032%=      5-min Rain = 0
KSC1 132004Z 25013G20KT 15/M02 A3003 RMK A01 T01471017  RH  032%=      5-min Rain = 0
KSC1 132005Z 24015KT 15/M02 A3003 RMK A01 T01471020  RH  032%=      5-min Rain = 0
KSC1 132006Z 24014G19KT 15/M02 A3003 RMK A01 T01461018  RH  032%=      5-min Rain = 0
KSC1 132007Z 25017KT 15/M02 A3003 RMK A01 T01461021  RH  032%=      5-min Rain = 0
KSC1 132008Z 25014G20KT 15/M02 A3003 RMK A01 T01461022  RH  031%=      5-min Rain = 0
KSC1 132009Z 25017G22KT 15/M02 A3003 RMK A01 T01471022  RH  031%=      5-min Rain = 0
KSC1 132010Z 24015KT 15/M02 A3003 RMK A01 T01471022  RH  031%=      5-min Rain = 0
KSC1 132011Z 24015KT 15/M02 A3003 RMK A01 T01471023  RH  031%=      5-min Rain = 0
KSC1 132012Z 23014KT 15/M03 A3002 RMK A01 T01481025  RH  030%=      5-min Rain = 0
KSC1 132013Z 24011KT 15/M02 A3003 RMK A01 T01481023  RH  031%=      5-min Rain = 0
KSC1 132014Z 23010G16KT 15/M02 A3002 RMK A01 T01511016  RH  032%=      5-min Rain = 0
KSC1 132015Z 22014KT 15/M02 A3002 RMK A01 T01531017  RH  031%=      5-min Rain = 0
KSC1 132016Z 22012KT 15/M02 A3002 RMK A01 T01531021  RH  030%=      5-min Rain = 0
KSC1 132017Z 22014KT 15/M02 A3002 RMK A01 T01531020  RH  031%=      5-min Rain = 0
KSC1 132018Z 23013KT 15/M02 A3002 RMK A01 T01521021  RH  030%=      5-min Rain = 0
KSC1 132019Z 23012G17KT 15/M02 A3002 RMK A01 T01511020  RH  031%=      5-min Rain = 0
KSC1 132020Z 23013KT 15/M02 A3002 RMK A01 T01511019  RH  031%=      5-min Rain = 0
KSC1 132021Z 24010G15KT 15/M02 A3002 RMK A01 T01511018  RH  031%=      5-min Rain = 0
KSC1 132022Z 23007KT 15/M01 A3002 RMK A01 T01521014  RH  032%=      5-min Rain = 0
KSC1 132023Z 23009KT 15/M01 A3002 RMK A01 T01541010  RH  032%=      5-min Rain = 0
KSC1 132024Z 21011G17KT 16/M02 A3002 RMK A01 T01551015  RH  031%=      5-min Rain = 0
KSC1 132025Z 21013G18KT 16/M02 A3002 RMK A01 T01551015  RH  031%=      5-min Rain = 0
KSC1 132026Z 21012G17KT 15/M02 A3002 RMK A01 T01541017  RH  031%=      5-min Rain = 0
KSC1 132027Z 22009G14KT 15/M02 A3002 RMK A01 T01541017  RH  031%=      5-min Rain = 0
KSC1 132028Z 24011KT 16/M01 A3002 RMK A01 T01551013  RH  031%=      5-min Rain = 0
KSC1 132029Z 24011KT 16/M02 A3002 RMK A01 T01561017  RH  031%=      5-min Rain = 0
KSC1 132030Z 23011KT 16/M02 A3002 RMK A01 T01551017  RH  031%=      5-min Rain = 0
KSC1 132031Z 22011G16KT 16/M02 A3002 RMK A01 T01561018  RH  030%=      5-min Rain = 0
KSC1 132032Z 22013G18KT 16/M02 A3002 RMK A01 T01561019  RH  030%=      5-min Rain = 0
KSC1 132033Z 22013KT 16/M02 A3002 RMK A01 T01551020  RH  030%=      5-min Rain = 0
KSC1 132034Z 21011KT 16/M02 A3002 RMK A01 T01551020  RH  030%=      5-min Rain = 0
KSC1 132035Z 24014KT 16/M02 A3002 RMK A01 T01551017  RH  031%=      5-min Rain = 0
KSC1 132036Z 23013KT 16/M02 A3002 RMK A01 T01551019  RH  030%=      5-min Rain = 0
KSC1 132037Z 22010KT 16/M02 A3002 RMK A01 T01551016  RH  031%=      5-min Rain = 0
KSC1 132038Z 22010G18KT 16/M01 A3002 RMK A01 T01561010  RH  032%=      5-min Rain = 0
KSC1 132039Z 22014KT 16/M01 A3002 RMK A01 T01581012  RH  031%=      5-min Rain = 0
KSC1 132040Z 22010KT 16/M01 A3002 RMK A01 T01561013  RH  031%=      5-min Rain = 0
KSC1 132041Z 23012KT 16/M01 A3002 RMK A01 T01561013  RH  031%=      5-min Rain = 0
KSC1 132042Z 23011KT 16/M01 A3002 RMK A01 T01561012  RH  032%=      5-min Rain = 0
KSC1 132043Z 22008G13KT 16/M01 A3002 RMK A01 T01561011  RH  032%=      5-min Rain = 0
KSC1 132044Z 22008KT 16/M01 A3002 RMK A01 T01571008  RH  032%=      5-min Rain = 0
KSC1 132045Z 23011G17KT 16/M01 A3002 RMK A01 T01591006  RH  032%=      5-min Rain = 0
KSC1 132046Z 24012KT 16/M01 A3002 RMK A01 T01591012  RH  031%=      5-min Rain = 0
KSC1 132047Z 23012KT 16/M01 A3002 RMK A01 T01561014  RH  031%=      5-min Rain = 0
KSC1 132048Z 22011KT 16/M01 A3002 RMK A01 T01551013  RH  032%=      5-min Rain = 0
KSC1 132049Z 23012KT 16/M01 A3002 RMK A01 T01551011  RH  032%=      5-min Rain = 0
KSC1 132050Z 22014KT 16/M01 A3002 RMK A01 T01551012  RH  032%=      5-min Rain = 0
KSC1 132051Z 22011KT 16/M01 A3002 RMK A01 T01551011  RH  032%=      5-min Rain = 0
KSC1 132052Z 23010KT 16/M01 A3002 RMK A01 T01561009  RH  032%=      5-min Rain = 0
KSC1 132053Z 22009KT 16/M01 A3002 RMK A01 T01571010  RH  032%=      5-min Rain = 0
KSC1 132054Z 22008KT 16/M01 A3002 RMK A01 T01581007  RH  033%=      5-min Rain = 0
KSC1 132055Z 22012G18KT 16/M01 A3002 RMK A01 T01591008  RH  032%=      5-min Rain = 0
KSC1 132056Z 23012G18KT 16/M01 A3001 RMK A01 T01591012  RH  031%=      5-min Rain = 0
KSC1 132057Z 23011G16KT 16/M01 A3001 RMK A01 T01581009  RH  032%=      5-min Rain = 0
KSC1 132058Z 22011KT 16/M01 A3001 RMK A01 T01571012  RH  031%=      5-min Rain = 0
KSC1 132059Z 22014KT 16/M01 A3001 RMK A01 T01561012  RH  032%=      5-min Rain = 0
KSC1 132100Z 22013KT 16/M01 A3001 RMK A01 T01561013  RH  032%=      5-min Rain = 0
KSC1 132101Z 21013KT 16/M01 A3001 RMK A01 T01551011  RH  032%=      5-min Rain = 0
KSC1 132102Z 21011G16KT 16/M01 A3001 RMK A01 T01551011  RH  032%=      5-min Rain = 0
KSC1 132103Z 21012KT 16/M01 A3001 RMK A01 T01551011  RH  032%=      5-min Rain = 0
KSC1 132104Z 22010G17KT 16/M01 A3001 RMK A01 T01561008  RH  032%=      5-min Rain = 0
KSC1 132105Z 22014KT 16/M01 A3001 RMK A01 T01571010  RH  032%=      5-min Rain = 0
KSC1 132106Z 23013KT 16/M02 A3001 RMK A01 T01561015  RH  031%=      5-min Rain = 0
KSC1 132107Z 22010G15KT 16/M01 A3001 RMK A01 T01551013  RH  032%=      5-min Rain = 0
KSC1 132108Z 23012G18KT 16/M01 A3001 RMK A01 T01551014  RH  031%=      5-min Rain = 0
KSC1 132109Z 22016KT 16/M02 A3001 RMK A01 T01551016  RH  031%=      5-min Rain = 0
KSC1 132110Z 23016G22KT 15/M02 A3001 RMK A01 T01541017  RH  031%=      5-min Rain = 0
KSC1 132111Z 23015KT 15/M02 A3001 RMK A01 T01531017  RH  031%=      5-min Rain = 0
KSC1 132112Z 22012KT 15/M02 A3001 RMK A01 T01531017  RH  031%=      5-min Rain = 0
KSC1 132113Z 23013KT 16/M01 A3001 RMK A01 T01551014  RH  031%=      5-min Rain = 0
KSC1 132114Z 22012KT 16/M02 A3001 RMK A01 T01551016  RH  031%=      5-min Rain = 0
KSC1 132115Z 22013G18KT 16/M02 A3001 RMK A01 T01561016  RH  031%=      5-min Rain = 0
KSC1 132116Z 23012G17KT 16/M02 A3001 RMK A01 T01561015  RH  031%=      5-min Rain = 0
KSC1 132117Z 23011KT 16/M02 A3001 RMK A01 T01571015  RH  031%=      5-min Rain = 0
KSC1 132118Z 22013KT 16/M01 A3001 RMK A01 T01571013  RH  031%=      5-min Rain = 0
KSC1 132119Z 23013KT 16/M01 A3001 RMK A01 T01581013  RH  031%=      5-min Rain = 0
KSC1 132120Z 23015KT 16/M02 A3001 RMK A01 T01581017  RH  030%=      5-min Rain = 0
KSC1 132121Z 24013KT 16/M02 A3001 RMK A01 T01571016  RH  030%=      5-min Rain = 0
KSC1 132122Z 23013G18KT 16/M02 A3001 RMK A01 T01571015  RH  031%=      5-min Rain = 0
KSC1 132123Z 23014KT 16/M02 A3001 RMK A01 T01571015  RH  031%=      5-min Rain = 0
KSC1 132124Z 22012G17KT 16/M02 A3001 RMK A01 T01571017  RH  030%=      5-min Rain = 0
KSC1 132125Z 23013G18KT 16/M02 A3001 RMK A01 T01561016  RH  031%=      5-min Rain = 0
KSC1 132126Z 23010KT 16/M02 A3001 RMK A01 T01571015  RH  031%=      5-min Rain = 0
KSC1 132127Z 23009KT 16/M01 A3001 RMK A01 T01581013  RH  031%=      5-min Rain = 0
KSC1 132128Z 23009KT 16/M01 A3001 RMK A01 T01591012  RH  031%=      5-min Rain = 0
KSC1 132129Z 23008KT 16/M01 A3001 RMK A01 T01601010  RH  031%=      5-min Rain = 0
KSC1 132130Z 22011KT 16/M01 A30 RMK A01 T01621011  RH  031%=      5-min Rain = 0
KSC1 132131Z 22014KT 16/M01 A30 RMK A01 T01621013  RH  030%=      5-min Rain = 0
KSC1 132132Z 21015KT 16/M01 A30 RMK A01 T01601014  RH  030%=      5-min Rain = 0
KSC1 132133Z 21015G20KT 16/M02 A30 RMK A01 T01591015  RH  030%=      5-min Rain = 0
KSC1 132134Z 22014KT 16/M02 A30 RMK A01 T01581015  RH  031%=      5-min Rain = 0
KSC1 132135Z 23009KT 16/M01 A30 RMK A01 T01581011  RH  031%=      5-min Rain = 0
KSC1 132136Z 23012G17KT 16/M01 A30 RMK A01 T01591010  RH  031%=      5-min Rain = 0
KSC1 132137Z 23013KT 16/M01 A30 RMK A01 T01601014  RH  030%=      5-min Rain = 0
KSC1 132138Z 23012KT 16/M01 A30 RMK A01 T01591014  RH  031%=      5-min Rain = 0
KSC1 132139Z 22014KT 16/M01 A3001 RMK A01 T01591013  RH  031%=      5-min Rain = 0
KSC1 132140Z 23013G18KT 16/M01 A3001 RMK A01 T01591014  RH  030%=      5-min Rain = 0
KSC1 132141Z 22010G16KT 16/M01 A3001 RMK A01 T01591011  RH  031%=      5-min Rain = 0
KSC1 132142Z 23012KT 16/M01 A30 RMK A01 T01611013  RH  030%=      5-min Rain = 0
KSC1 132143Z 21013KT 16/M01 A3001 RMK A01 T01611014  RH  030%=      5-min Rain = 0
KSC1 132144Z 22014KT 16/M02 A30 RMK A01 T01611015  RH  030%=      5-min Rain = 0
KSC1 132145Z 22013G18KT 16/M02 A30 RMK A01 T01611015  RH  030%=      5-min Rain = 0
KSC1 132146Z 22012KT 16/M02 A30 RMK A01 T01611015  RH  030%=      5-min Rain = 0
KSC1 132147Z 24011KT 16/M02 A30 RMK A01 T01611016  RH  030%=      5-min Rain = 0
KSC1 132148Z 23014KT 16/M02 A30 RMK A01 T01611015  RH  030%=      5-min Rain = 0
KSC1 132149Z 23012KT 16/M02 A30 RMK A01 T01611016  RH  030%=      5-min Rain = 0
KSC1 132150Z 23011KT 16/M02 A30 RMK A01 T01621017  RH  029%=      5-min Rain = 0
KSC1 132151Z 23012KT 16/M02 A30 RMK A01 T01631015  RH  030%=      5-min Rain = 0
KSC1 132152Z 23010KT 16/M02 A30 RMK A01 T01631017  RH  029%=      5-min Rain = 0
KSC1 132153Z 23010KT 16/M02 A30 RMK A01 T01631018  RH  029%=      5-min Rain = 0
KSC1 132154Z 23007KT 16/M01 A30 RMK A01 T01641012  RH  030%=      5-min Rain = 0
KSC1 132155Z 21010G15KT 17/M01 A30 RMK A01 T01661009  RH  030%=      5-min Rain = 0
KSC1 132156Z 21011G16KT 17/M01 A30 RMK A01 T01671011  RH  030%=      5-min Rain = 0
KSC1 132157Z 21013KT 17/M01 A30 RMK A01 T01671011  RH  030%=      5-min Rain = 0
KSC1 132158Z 23011G16KT 17/M01 A30 RMK A01 T01651013  RH  030%=      5-min Rain = 0
KSC1 132159Z 23015KT 16/M01 A30 RMK A01 T01641013  RH  030%=      5-min Rain = 0
KSC1 132200Z 23014KT 16/M01 A30 RMK A01 T01641013  RH  030%=      5-min Rain = 0
KSC1 132201Z 24012KT 16/M02 A30 RMK A01 T01631016  RH  029%=      5-min Rain = 0
KSC1 132202Z 24011KT 16/M02 A30 RMK A01 T01621017  RH  029%=      5-min Rain = 0
KSC1 132203Z 22010KT 16/M02 A2999 RMK A01 T01621017  RH  029%=      5-min Rain = 0
KSC1 132204Z 22015KT 16/M02 A2999 RMK A01 T01631020  RH  028%=      5-min Rain = 0
KSC1 132205Z 23013KT 16/M02 A2999 RMK A01 T01631023  RH  028%=      5-min Rain = 0
KSC1 132206Z 24010G15KT 16/M02 A2999 RMK A01 T01641023  RH  028%=      5-min Rain = 0
KSC1 132207Z 24011G16KT 16/M02 A2999 RMK A01 T01641022  RH  028%=      5-min Rain = 0
KSC1 132208Z 24012G17KT 16/M02 A2999 RMK A01 T01641024  RH  028%=      5-min Rain = 0
KSC1 132209Z 22009KT 17/M02 A2999 RMK A01 T01651020  RH  028%=      5-min Rain = 0
KSC1 132210Z 22014KT 17/M02 A2999 RMK A01 T01651019  RH  028%=      5-min Rain = 0
KSC1 132211Z 22012KT 17/M02 A2999 RMK A01 T01651018  RH  029%=      5-min Rain = 0
KSC1 132212Z 22010KT 16/M02 A2999 RMK A01 T01641016  RH  029%=      5-min Rain = 0
KSC1 132213Z 21012KT 16/M02 A2999 RMK A01 T01641015  RH  029%=      5-min Rain = 0
KSC1 132214Z 23013KT 16/M02 A2999 RMK A01 T01641017  RH  029%=      5-min Rain = 0
KSC1 132215Z 23013KT 16/M02 A2999 RMK A01 T01641020  RH  028%=      5-min Rain = 0
KSC1 132216Z 22014KT 16/M02 A2999 RMK A01 T01641023  RH  028%=      5-min Rain = 0
KSC1 132217Z 22012KT 16/M02 A2999 RMK A01 T01641024  RH  027%=      5-min Rain = 0
KSC1 132218Z 23013KT 17/M03 A2998 RMK A01 T01651025  RH  027%=      5-min Rain = 0
KSC1 132219Z 22013KT 17/M03 A2998 RMK A01 T01651025  RH  027%=      5-min Rain = 0
KSC1 132220Z 22012KT 17/M02 A2998 RMK A01 T01651024  RH  027%=      5-min Rain = 0
KSC1 132221Z 22011KT 17/M02 A2998 RMK A01 T01651023  RH  027%=      5-min Rain = 0
KSC1 132222Z 22012G17KT 17/M02 A2998 RMK A01 T01651023  RH  027%=      5-min Rain = 0
KSC1 132223Z 22013KT 17/M02 A2998 RMK A01 T01651022  RH  028%=      5-min Rain = 0
KSC1 132224Z 22014KT 17/M02 A2998 RMK A01 T01651022  RH  028%=      5-min Rain = 0
KSC1 132225Z 22009G14KT 17/M02 A2998 RMK A01 T01651019  RH  028%=      5-min Rain = 0
KSC1 132226Z 21010KT 17/M02 A2998 RMK A01 T01651017  RH  029%=      5-min Rain = 0
KSC1 132227Z 21010KT 17/M02 A2998 RMK A01 T01661017  RH  029%=      5-min Rain = 0
KSC1 132228Z 21013G20KT 17/M02 A2998 RMK A01 T01661016  RH  029%=      5-min Rain = 0
KSC1 132229Z 22014KT 17/M02 A2998 RMK A01 T01651017  RH  029%=      5-min Rain = 0
KSC1 132230Z 22012G18KT 17/M02 A2998 RMK A01 T01651020  RH  028%=      5-min Rain = 0
KSC1 132231Z 22015KT 16/M02 A2998 RMK A01 T01641022  RH  028%=      5-min Rain = 0
KSC1 132232Z 21012G18KT 16/M02 A2997 RMK A01 T01631022  RH  028%=      5-min Rain = 0
KSC1 132233Z 21011KT 16/M02 A2997 RMK A01 T01631020  RH  028%=      5-min Rain = 0
KSC1 132234Z 22013KT 16/M02 A2997 RMK A01 T01631020  RH  028%=      5-min Rain = 0
KSC1 132235Z 22013G18KT 16/M02 A2997 RMK A01 T01631020  RH  028%=      5-min Rain = 0
KSC1 132236Z 21011KT 16/M02 A2997 RMK A01 T01631020  RH  028%=      5-min Rain = 0
KSC1 132237Z 21008KT 16/M02 A2997 RMK A01 T01631017  RH  029%=      5-min Rain = 0
KSC1 132238Z 22012G18KT 16/M02 A2997 RMK A01 T01641015  RH  029%=      5-min Rain = 0
KSC1 132239Z 21011KT 16/M02 A2997 RMK A01 T01641017  RH  029%=      5-min Rain = 0
KSC1 132240Z 21011KT 16/M02 A2997 RMK A01 T01641019  RH  029%=      5-min Rain = 0
KSC1 132241Z 21012KT 16/M02 A2997 RMK A01 T01631020  RH  028%=      5-min Rain = 0
KSC1 132242Z 22012KT 16/M02 A2997 RMK A01 T01631023  RH  028%=      5-min Rain = 0
KSC1 132243Z 22012KT 16/M02 A2998 RMK A01 T01621024  RH  028%=      5-min Rain = 0
KSC1 132244Z 23010KT 16/M02 A2998 RMK A01 T01621023  RH  028%=      5-min Rain = 0
KSC1 132245Z 23013KT 16/M02 A2998 RMK A01 T01621023  RH  028%=      5-min Rain = 0
KSC1 132246Z 22010G15KT 16/M03 A2998 RMK A01 T01621025  RH  028%=      5-min Rain = 0
KSC1 132247Z 22008KT 16/M02 A2998 RMK A01 T01621023  RH  028%=      5-min Rain = 0
KSC1 132248Z 23008KT 16/M02 A2998 RMK A01 T01621021  RH  028%=      5-min Rain = 0
KSC1 132249Z 22009G15KT 16/M03 A2998 RMK A01 T01621026  RH  027%=      5-min Rain = 0
KSC1 132250Z 22011KT 16/M03 A2997 RMK A01 T01621027  RH  027%=      5-min Rain = 0
KSC1 132251Z 22009KT 16/M03 A2997 RMK A01 T01621028  RH  027%=      5-min Rain = 0
KSC1 132252Z 22007KT 16/M03 A2997 RMK A01 T01621027  RH  027%=      5-min Rain = 0
KSC1 132253Z 21009KT 16/M03 A2997 RMK A01 T01621026  RH  027%=      5-min Rain = 0
KSC1 132254Z 22011G16KT 16/M03 A2997 RMK A01 T01621029  RH  027%=      5-min Rain = 0
KSC1 132255Z 22011KT 16/M03 A2997 RMK A01 T01621029  RH  027%=      5-min Rain = 0
KSC1 132256Z 22010KT 16/M03 A2997 RMK A01 T01611029  RH  027%=      5-min Rain = 0
KSC1 132257Z 22009KT 16/M03 A2997 RMK A01 T01611029  RH  027%=      5-min Rain = 0
KSC1 132258Z 22010KT 16/M03 A2997 RMK A01 T01611028  RH  027%=      5-min Rain = 0
KSC1 132259Z 22010KT 16/M03 A2997 RMK A01 T01611028  RH  027%=      5-min Rain = 0
KSC1 132300Z 22010KT 16/M03 A2997 RMK A01 T01611028  RH  027%=      5-min Rain = 0
KSC1 132301Z 23007KT 16/M03 A2997 RMK A01 T01611026  RH  028%=      5-min Rain = 0
KSC1 132302Z 23010KT 16/M03 A2997 RMK A01 T01601028  RH  027%=      5-min Rain = 0
KSC1 132303Z 22009KT 16/M03 A2997 RMK A01 T01601028  RH  027%=      5-min Rain = 0
KSC1 132304Z 23007KT 16/M03 A2997 RMK A01 T01611026  RH  028%=      5-min Rain = 0
KSC1 132305Z 23004KT 16/M03 A2997 RMK A01 T01611025  RH  028%=      5-min Rain = 0
KSC1 132306Z 23005KT 16/M02 A2997 RMK A01 T01611024  RH  028%=      5-min Rain = 0
KSC1 132307Z 24007KT 16/M02 A2997 RMK A01 T01611024  RH  028%=      5-min Rain = 0
KSC1 132308Z 23005KT 16/M03 A2998 RMK A01 T01611025  RH  028%=      5-min Rain = 0
KSC1 132309Z 23006KT 16/M03 A2998 RMK A01 T01611025  RH  028%=      5-min Rain = 0
KSC1 132310Z 23007KT 16/M03 A2998 RMK A01 T01611026  RH  028%=      5-min Rain = 0
KSC1 132311Z 23007KT 16/M03 A2998 RMK A01 T01611026  RH  028%=      5-min Rain = 0
KSC1 132312Z 22007KT 16/M03 A2998 RMK A01 T01611026  RH  028%=      5-min Rain = 0
KSC1 132313Z 23006KT 16/M03 A2998 RMK A01 T01601026  RH  028%=      5-min Rain = 0
KSC1 132314Z 22006KT 16/M03 A2998 RMK A01 T01601025  RH  028%=      5-min Rain = 0
KSC1 132315Z 22005KT 16/M03 A2998 RMK A01 T01601026  RH  028%=      5-min Rain = 0
KSC1 132316Z 23008KT 16/M03 A2997 RMK A01 T01601027  RH  028%=      5-min Rain = 0
KSC1 132317Z 22008KT 16/M03 A2997 RMK A01 T01601027  RH  028%=      5-min Rain = 0
KSC1 132318Z 21007KT 16/M03 A2997 RMK A01 T01601026  RH  028%=      5-min Rain = 0
KSC1 132319Z 21007KT 16/M03 A2997 RMK A01 T01591025  RH  028%=      5-min Rain = 0
KSC1 132320Z 22007KT 16/M03 A2997 RMK A01 T01581025  RH  028%=      5-min Rain = 0
KSC1 132321Z 22006KT 16/M03 A2997 RMK A01 T01581025  RH  028%=      5-min Rain = 0
KSC1 132322Z 21004KT 16/M03 A2997 RMK A01 T01571025  RH  029%=      5-min Rain = 0
KSC1 132323Z 20006KT 16/M02 A2997 RMK A01 T01571024  RH  029%=      5-min Rain = 0
KSC1 132324Z 21005KT 16/M02 A2997 RMK A01 T01561024  RH  029%=      5-min Rain = 0
KSC1 132325Z 20004KT 16/M02 A2997 RMK A01 T01561024  RH  029%=      5-min Rain = 0
KSC1 132326Z 20005KT 16/M02 A2997 RMK A01 T01551023  RH  029%=      5-min Rain = 0
KSC1 132327Z 20004KT 16/M02 A2997 RMK A01 T01551023  RH  029%=      5-min Rain = 0
KSC1 132328Z 19003KT 15/M02 A2997 RMK A01 T01541024  RH  029%=      5-min Rain = 0
KSC1 132329Z 21003KT 15/M02 A2997 RMK A01 T01541023  RH  030%=      5-min Rain = 0
KSC1 132330Z 21002KT 15/M02 A2997 RMK A01 T01541022  RH  030%=      5-min Rain = 0
KSC1 132331Z 20003KT 15/M02 A2997 RMK A01 T01541022  RH  030%=      5-min Rain = 0
KSC1 132332Z 20004KT 15/M02 A2997 RMK A01 T01541022  RH  030%=      5-min Rain = 0
KSC1 132333Z 21003KT 15/M02 A2997 RMK A01 T01541023  RH  030%=      5-min Rain = 0
KSC1 132334Z 21002KT 15/M02 A2997 RMK A01 T01541023  RH  030%=      5-min Rain = 0
KSC1 132335Z 23003KT 15/M02 A2998 RMK A01 T01531023  RH  030%=      5-min Rain = 0
KSC1 132336Z 21003KT 15/M02 A2998 RMK A01 T01531023  RH  030%=      5-min Rain = 0
KSC1 132337Z 24002KT 15/M02 A2998 RMK A01 T01531022  RH  030%=      5-min Rain = 0
KSC1 132338Z 24003KT 15/M02 A2998 RMK A01 T01531022  RH  030%=      5-min Rain = 0
KSC1 132339Z 25002KT 15/M02 A2998 RMK A01 T01521022  RH  030%=      5-min Rain = 0
KSC1 132340Z 24002KT 15/M02 A2998 RMK A01 T01521021  RH  030%=      5-min Rain = 0
KSC1 132341Z 25003KT 15/M02 A2998 RMK A01 T01501021  RH  031%=      5-min Rain = 0
KSC1 132342Z 24002KT 15/M02 A2998 RMK A01 T01491021  RH  031%=      5-min Rain = 0
KSC1 132343Z 22003KT 15/M02 A2998 RMK A01 T01481021  RH  031%=      5-min Rain = 0
KSC1 132344Z 22003KT 15/M02 A2998 RMK A01 T01481021  RH  031%=      5-min Rain = 0
KSC1 132345Z 22002KT 15/M02 A2998 RMK A01 T01471021  RH  031%=      5-min Rain = 0
KSC1 132346Z 22002KT 15/M02 A2998 RMK A01 T01461020  RH  032%=      5-min Rain = 0
KSC1 132347Z 21004KT 15/M02 A2998 RMK A01 T01451021  RH  032%=      5-min Rain = 0
KSC1 132348Z 21003KT 14/M02 A2998 RMK A01 T01441020  RH  032%=      5-min Rain = 0
KSC1 132349Z 19003KT 14/M02 A2998 RMK A01 T01421020  RH  033%=      5-min Rain = 0
KSC1 132350Z 19004KT 14/M02 A2997 RMK A01 T01401020  RH  033%=      5-min Rain = 0
KSC1 132351Z 20005KT 14/M02 A2997 RMK A01 T01381020  RH  034%=      5-min Rain = 0
KSC1 132352Z 20005KT 14/M02 A2997 RMK A01 T01371020  RH  034%=      5-min Rain = 0
KSC1 132353Z 20004KT 14/M02 A2997 RMK A01 T01361019  RH  034%=      5-min Rain = 0
KSC1 132354Z 21005KT 14/M02 A2997 RMK A01 T01351020  RH  034%=      5-min Rain = 0
KSC1 132355Z 21005KT 13/M02 A2997 RMK A01 T01331020  RH  035%=      5-min Rain = 0
KSC1 132356Z 21005KT 13/M02 A2997 RMK A01 T01321021  RH  035%=      5-min Rain = 0
KSC1 132357Z 21005KT 13/M02 A2997 RMK A01 T01311021  RH  035%=      5-min Rain = 0
KSC1 132358Z 20006KT 13/M02 A2997 RMK A01 T01301021  RH  035%=      5-min Rain = 0
KSC1 132359Z 20006KT 13/M02 A2996 RMK A01 T01291021  RH  035%=      5-min Rain = 0
KSC1 140000Z 21004KT 13/M02 A2996 RMK A01 T01281021  RH  036%=      5-min Rain = 0
KSC1 140001Z 21004KT 13/M02 A2996 RMK A01 T01271021  RH  036%=      5-min Rain = 0
KSC1 140002Z 22005KT 13/M02 A2996 RMK A01 T01261021  RH  036%=      5-min Rain = 0
KSC1 140003Z 21005KT 13/M02 A2996 RMK A01 T01261021  RH  036%=      5-min Rain = 0
KSC1 140004Z 22004KT 13/M02 A2996 RMK A01 T01251022  RH  036%=      5-min Rain = 0
KSC1 140005Z 22005KT 13/M02 A2996 RMK A01 T01251021  RH  036%=      5-min Rain = 0
KSC1 140006Z 22004KT 12/M02 A2996 RMK A01 T01241022  RH  036%=      5-min Rain = 0
KSC1 140007Z 21006KT 12/M02 A2996 RMK A01 T01241022  RH  036%=      5-min Rain = 0
KSC1 140008Z 22006KT 12/M02 A2996 RMK A01 T01241021  RH  036%=      5-min Rain = 0
KSC1 140009Z 22006KT 12/M02 A2997 RMK A01 T01241021  RH  036%=      5-min Rain = 0
KSC1 140010Z 22005KT 12/M02 A2997 RMK A01 T01241021  RH  037%=      5-min Rain = 0
KSC1 140011Z 23005KT 12/M02 A2996 RMK A01 T01241020  RH  037%=      5-min Rain = 0
KSC1 140012Z 22006KT 12/M02 A2996 RMK A01 T01231020  RH  037%=      5-min Rain = 0
KSC1 140013Z 22006KT 12/M02 A2996 RMK A01 T01221020  RH  037%=      5-min Rain = 0
KSC1 140014Z 22006KT 12/M02 A2996 RMK A01 T01211020  RH  038%=      5-min Rain = 0
KSC1 140015Z 22005KT 12/M02 A2996 RMK A01 T01201019  RH  038%=      5-min Rain = 0
KSC1 140016Z 21005KT 12/M02 A2996 RMK A01 T01191019  RH  038%=      5-min Rain = 0
KSC1 140017Z 21005KT 12/M02 A2996 RMK A01 T01171019  RH  039%=      5-min Rain = 0
KSC1 140018Z 21006KT 12/M02 A2996 RMK A01 T01161019  RH  039%=      5-min Rain = 0
KSC1 140019Z 21006KT 12/M02 A2996 RMK A01 T01151019  RH  039%=      5-min Rain = 0
KSC1 140020Z 20005KT 12/M02 A2996 RMK A01 T01151019  RH  039%=      5-min Rain = 0
KSC1 140021Z 20004KT 11/M02 A2996 RMK A01 T01141019  RH  039%=      5-min Rain = 0
KSC1 140022Z 20005KT 11/M02 A2996 RMK A01 T01141019  RH  039%=      5-min Rain = 0
KSC1 140023Z 20004KT 11/M02 A2996 RMK A01 T01141019  RH  040%=      5-min Rain = 0
KSC1 140024Z 19005KT 11/M02 A2996 RMK A01 T01131019  RH  040%=      5-min Rain = 0
KSC1 140025Z 19005KT 11/M02 A2996 RMK A01 T01121019  RH  040%=      5-min Rain = 0
KSC1 140026Z 20004KT 11/M02 A2996 RMK A01 T01111018  RH  040%=      5-min Rain = 0
KSC1 140027Z 20004KT 11/M02 A2996 RMK A01 T01101019  RH  041%=      5-min Rain = 0
KSC1 140028Z 21005KT 11/M02 A2996 RMK A01 T01091019  RH  041%=      5-min Rain = 0
KSC1 140029Z 21004KT 11/M02 A2996 RMK A01 T01091019  RH  041%=      5-min Rain = 0
KSC1 140030Z 21005KT 11/M02 A2995 RMK A01 T01091019  RH  041%=      5-min Rain = 0
KSC1 140031Z 21005KT 11/M02 A2995 RMK A01 T01091020  RH  041%=      5-min Rain = 0
KSC1 140032Z 21005KT 11/M02 A2995 RMK A01 T01101019  RH  040%=      5-min Rain = 0
KSC1 140033Z 21006KT 11/M02 A2995 RMK A01 T01121019  RH  040%=      5-min Rain = 0
KSC1 140034Z 21005KT 11/M02 A2995 RMK A01 T01141019  RH  040%=      5-min Rain = 0
KSC1 140035Z 21007KT 11/M02 A2995 RMK A01 T01141019  RH  039%=      5-min Rain = 0
KSC1 140036Z 20007KT 12/M02 A2995 RMK A01 T01151019  RH  039%=      5-min Rain = 0
KSC1 140037Z 22007KT 12/M02 A2995 RMK A01 T01181019  RH  039%=      5-min Rain = 0
KSC1 140038Z 21006KT 12/M02 A2995 RMK A01 T01201019  RH  038%=      5-min Rain = 0
KSC1 140039Z 21007KT 12/M02 A2995 RMK A01 T01201019  RH  038%=      5-min Rain = 0
KSC1 140040Z 21007KT 12/M02 A2995 RMK A01 T01211019  RH  037%=      5-min Rain = 0
KSC1 140041Z 21007KT 12/M02 A2995 RMK A01 T01221020  RH  037%=      5-min Rain = 0
KSC1 140042Z 21008KT 12/M02 A2995 RMK A01 T01231019  RH  037%=      5-min Rain = 0
KSC1 140043Z 21007KT 12/M02 A2995 RMK A01 T01231019  RH  037%=      5-min Rain = 0
KSC1 140044Z 20008KT 12/M02 A2995 RMK A01 T01231019  RH  037%=      5-min Rain = 0
KSC1 140045Z 20007KT 12/M02 A2995 RMK A01 T01221019  RH  037%=      5-min Rain = 0
KSC1 140046Z 20008KT 12/M02 A2995 RMK A01 T01221019  RH  037%=      5-min Rain = 0
KSC1 140047Z 20007KT 12/M02 A2995 RMK A01 T01221018  RH  038%=      5-min Rain = 0
KSC1 140048Z 20008KT 12/M02 A2995 RMK A01 T01211018  RH  038%=      5-min Rain = 0
KSC1 140049Z 20007KT 12/M02 A2995 RMK A01 T01211018  RH  038%=      5-min Rain = 0
KSC1 140050Z 20008KT 12/M02 A2995 RMK A01 T01201018  RH  038%=      5-min Rain = 0
KSC1 140051Z 20007KT 12/M02 A2995 RMK A01 T01191018  RH  039%=      5-min Rain = 0
KSC1 140052Z 20007KT 12/M02 A2995 RMK A01 T01171018  RH  039%=      5-min Rain = 0
KSC1 140053Z 20007KT 12/M02 A2995 RMK A01 T01171018  RH  039%=      5-min Rain = 0
KSC1 140054Z 20007KT 12/M02 A2995 RMK A01 T01171018  RH  039%=      5-min Rain = 0
KSC1 140055Z 20008KT 12/M02 A2995 RMK A01 T01171018  RH  039%=      5-min Rain = 0
KSC1 140056Z 20007KT 12/M02 A2995 RMK A01 T01161018  RH  039%=      5-min Rain = 0
KSC1 140057Z 20007KT 12/M02 A2995 RMK A01 T01151017  RH  040%=      5-min Rain = 0
KSC1 140058Z 20007KT 11/M02 A2995 RMK A01 T01141017  RH  040%=      5-min Rain = 0
KSC1 140059Z 20006KT 11/M02 A2995 RMK A01 T01131018  RH  040%=      5-min Rain = 0
KSC1 140100Z 20007KT 11/M02 A2995 RMK A01 T01131018  RH  040%=      5-min Rain = 0
KSC1 140101Z 20006KT 11/M02 A2995 RMK A01 T01131018  RH  040%=      5-min Rain = 0
KSC1 140102Z 20007KT 11/M02 A2995 RMK A01 T01131017  RH  040%=      5-min Rain = 0
KSC1 140103Z 19007KT 11/M02 A2995 RMK A01 T01131018  RH  040%=      5-min Rain = 0
KSC1 140104Z 20008KT 11/M02 A2995 RMK A01 T01121018  RH  040%=      5-min Rain = 0
KSC1 140105Z 20006KT 11/M02 A2995 RMK A01 T01121018  RH  040%=      5-min Rain = 0
KSC1 140106Z 20006KT 11/M02 A2995 RMK A01 T01111018  RH  041%=      5-min Rain = 0
KSC1 140107Z 20006KT 11/M02 A2995 RMK A01 T01101018  RH  041%=      5-min Rain = 0
KSC1 140108Z 20006KT 11/M02 A2995 RMK A01 T01101017  RH  041%=      5-min Rain = 0
KSC1 140109Z 20005KT 11/M02 A2995 RMK A01 T01081018  RH  041%=      5-min Rain = 0
KSC1 140110Z 21006KT 11/M02 A2995 RMK A01 T01081018  RH  041%=      5-min Rain = 0
KSC1 140111Z 21005KT 11/M02 A2995 RMK A01 T01081018  RH  041%=      5-min Rain = 0
KSC1 140112Z 21006KT 11/M02 A2995 RMK A01 T01081019  RH  041%=      5-min Rain = 0
KSC1 140113Z 21005KT 11/M02 A2995 RMK A01 T01091020  RH  040%=      5-min Rain = 0
KSC1 140114Z 22004KT 11/M02 A2995 RMK A01 T01091020  RH  040%=      5-min Rain = 0
KSC1 140115Z 22004KT 11/M02 A2995 RMK A01 T01091021  RH  040%=      5-min Rain = 0
KSC1 140116Z 22004KT 11/M02 A2995 RMK A01 T01091021  RH  040%=      5-min Rain = 0
KSC1 140117Z 22005KT 11/M02 A2995 RMK A01 T01071021  RH  041%=      5-min Rain = 0
KSC1 140118Z 22005KT 11/M02 A2995 RMK A01 T01071020  RH  041%=      5-min Rain = 0
KSC1 140119Z 22006KT 11/M02 A2995 RMK A01 T01071020  RH  041%=      5-min Rain = 0
KSC1 140120Z 22006KT 11/M02 A2995 RMK A01 T01071020  RH  041%=      5-min Rain = 0
KSC1 140121Z 21005KT 11/M02 A2995 RMK A01 T01061019  RH  042%=      5-min Rain = 0
KSC1 140122Z 21005KT 11/M02 A2995 RMK A01 T01051019  RH  042%=      5-min Rain = 0
KSC1 140123Z 21005KT 10/M02 A2995 RMK A01 T01041019  RH  042%=      5-min Rain = 0
KSC1 140124Z 21004KT 10/M02 A2995 RMK A01 T01041020  RH  042%=      5-min Rain = 0
KSC1 140125Z 21005KT 10/M02 A2995 RMK A01 T01031020  RH  042%=      5-min Rain = 0
KSC1 140126Z 21005KT 10/M02 A2995 RMK A01 T01031021  RH  042%=      5-min Rain = 0
KSC1 140127Z 21005KT 10/M02 A2995 RMK A01 T01031022  RH  042%=      5-min Rain = 0
KSC1 140128Z 21006KT 10/M02 A2995 RMK A01 T01031022  RH  041%=      5-min Rain = 0
KSC1 140129Z 21006KT 10/M02 A2995 RMK A01 T01041022  RH  041%=      5-min Rain = 0
KSC1 140130Z 21005KT 11/M02 A2995 RMK A01 T01051022  RH  041%=      5-min Rain = 0
KSC1 140131Z 22005KT 10/M02 A2995 RMK A01 T01041022  RH  041%=      5-min Rain = 0
KSC1 140132Z 21005G10KT 10/M02 A2995 RMK A01 T01041022  RH  041%=      5-min Rain = 0
KSC1 140133Z 21005KT 10/M02 A2995 RMK A01 T01031022  RH  041%=      5-min Rain = 0
KSC1 140134Z 21006KT 10/M02 A2995 RMK A01 T01031022  RH  042%=      5-min Rain = 0
KSC1 140135Z 21005KT 10/M02 A2995 RMK A01 T01021022  RH  042%=      5-min Rain = 0
KSC1 140136Z 22004KT 10/M02 A2995 RMK A01 T01011022  RH  042%=      5-min Rain = 0
KSC1 140137Z 22005KT 10/M02 A2995 RMK A01 T01001022  RH  042%=      5-min Rain = 0
KSC1 140138Z 21005KT 10/M02 A2995 RMK A01 T01001022  RH  042%=      5-min Rain = 0
KSC1 140139Z 21005KT 10/M02 A2995 RMK A01 T01001022  RH  042%=      5-min Rain = 0
KSC1 140140Z 21004KT 10/M02 A2995 RMK A01 T01001022  RH  042%=      5-min Rain = 0
KSC1 140141Z 20004KT 10/M02 A2995 RMK A01 T01001023  RH  042%=      5-min Rain = 0
KSC1 140142Z 21004KT 10/M02 A2995 RMK A01 T01011024  RH  042%=      5-min Rain = 0
KSC1 140143Z 21004KT 10/M02 A2995 RMK A01 T01011024  RH  041%=      5-min Rain = 0
KSC1 140144Z 21005KT 10/M03 A2995 RMK A01 T01011025  RH  041%=      5-min Rain = 0
KSC1 140145Z 21005KT 10/M03 A2995 RMK A01 T01011025  RH  041%=      5-min Rain = 0
KSC1 140146Z 21005KT 10/M03 A2995 RMK A01 T01001026  RH  041%=      5-min Rain = 0
KSC1 140147Z 21006KT 10/M03 A2995 RMK A01 T01011027  RH  041%=      5-min Rain = 0
KSC1 140148Z 21005KT 10/M03 A2995 RMK A01 T01021027  RH  040%=      5-min Rain = 0
KSC1 140149Z 21007KT 10/M03 A2995 RMK A01 T01021028  RH  040%=      5-min Rain = 0
KSC1 140150Z 21007KT 10/M03 A2995 RMK A01 T01031029  RH  040%=      5-min Rain = 0
KSC1 140151Z 22007KT 10/M03 A2995 RMK A01 T01041029  RH  039%=      5-min Rain = 0
KSC1 140152Z 21007KT 11/M03 A2995 RMK A01 T01051029  RH  039%=      5-min Rain = 0
KSC1 140153Z 21007KT 11/M03 A2995 RMK A01 T01061030  RH  039%=      5-min Rain = 0
KSC1 140154Z 21007KT 11/M03 A2995 RMK A01 T01061029  RH  038%=      5-min Rain = 0
KSC1 140155Z 22007KT 11/M03 A2995 RMK A01 T01061030  RH  038%=      5-min Rain = 0
KSC1 140156Z 21009KT 11/M03 A2995 RMK A01 T01071030  RH  038%=      5-min Rain = 0
KSC1 140157Z 21007KT 11/M03 A2995 RMK A01 T01081031  RH  038%=      5-min Rain = 0
KSC1 140158Z 21006KT 11/M03 A2995 RMK A01 T01081031  RH  038%=      5-min Rain = 0
KSC1 140159Z 21005KT 11/M03 A2995 RMK A01 T01061031  RH  038%=      5-min Rain = 0
KSC1 140200Z 21004KT 10/M03 A2995 RMK A01 T01041031  RH  039%=      5-min Rain = 0
KSC1 140201Z 21005KT 10/M03 A2995 RMK A01 T01031032  RH  039%=      5-min Rain = 0
KSC1 140202Z 21004KT 10/M03 A2995 RMK A01 T01021034  RH  038%=      5-min Rain = 0
KSC1 140203Z 21004KT 10/M03 A2995 RMK A01 T01021034  RH  038%=      5-min Rain = 0
KSC1 140204Z 21005KT 10/M03 A2995 RMK A01 T01011034  RH  039%=      5-min Rain = 0
KSC1 140205Z 20005KT 10/M03 A2995 RMK A01 T01011034  RH  039%=      5-min Rain = 0
KSC1 140206Z 20005KT 10/M04 A2995 RMK A01 T01001035  RH  039%=      5-min Rain = 0
KSC1 140207Z 20005KT 10/M03 A2995 RMK A01 T01001033  RH  039%=      5-min Rain = 0
KSC1 140208Z 20005KT 10/M03 A2995 RMK A01 T00991032  RH  040%=      5-min Rain = 0
KSC1 140209Z 20006KT 10/M03 A2995 RMK A01 T00981031  RH  040%=      5-min Rain = 0
KSC1 140210Z 20007KT 10/M03 A2995 RMK A01 T00971031  RH  041%=      5-min Rain = 0
KSC1 140211Z 20008KT 10/M03 A2995 RMK A01 T00961030  RH  041%=      5-min Rain = 0
KSC1 140212Z 20008KT 10/M03 A2995 RMK A01 T00961030  RH  041%=      5-min Rain = 0
KSC1 140213Z 20007KT 10/M03 A2995 RMK A01 T00971029  RH  041%=      5-min Rain = 0
KSC1 140214Z 20008KT 10/M03 A2995 RMK A01 T00971029  RH  041%=      5-min Rain = 0
KSC1 140215Z 20007KT 10/M03 A2995 RMK A01 T00971029  RH  041%=      5-min Rain = 0
KSC1 140216Z 20007KT 10/M03 A2995 RMK A01 T00971029  RH  041%=      5-min Rain = 0
KSC1 140217Z 20007KT 10/M03 A2995 RMK A01 T00971030  RH  041%=      5-min Rain = 0
KSC1 140218Z 21006KT 10/M03 A2995 RMK A01 T00961031  RH  041%=      5-min Rain = 0
KSC1 140219Z 20007KT 10/M03 A2995 RMK A01 T00961032  RH  040%=      5-min Rain = 0
KSC1 140220Z 20006KT 10/M03 A2995 RMK A01 T00971032  RH  040%=      5-min Rain = 0
KSC1 140221Z 20006KT 10/M03 A2995 RMK A01 T00971033  RH  040%=      5-min Rain = 0
KSC1 140222Z 20005KT 10/M03 A2995 RMK A01 T00971034  RH  039%=      5-min Rain = 0
KSC1 140223Z 21006KT 10/M03 A2995 RMK A01 T00981034  RH  039%=      5-min Rain = 0
KSC1 140224Z 21005KT 10/M04 A2995 RMK A01 T00981036  RH  039%=      5-min Rain = 0
KSC1 140225Z 22005KT 10/M04 A2995 RMK A01 T00991037  RH  038%=      5-min Rain = 0
KSC1 140226Z 22005KT 10/M04 A2995 RMK A01 T01001038  RH  038%=      5-min Rain = 0
KSC1 140227Z 22005KT 10/M04 A2995 RMK A01 T01011039  RH  037%=      5-min Rain = 0
KSC1 140228Z 21004KT 10/M04 A2995 RMK A01 T01021040  RH  037%=      5-min Rain = 0
KSC1 140229Z 21004KT 10/M04 A2995 RMK A01 T01021040  RH  037%=      5-min Rain = 0
KSC1 140230Z 21005KT 10/M04 A2995 RMK A01 T01021040  RH  037%=      5-min Rain = 0
KSC1 140231Z 21006KT 10/M04 A2995 RMK A01 T01021041  RH  036%=      5-min Rain = 0
KSC1 140232Z 22005KT 10/M04 A2995 RMK A01 T01021042  RH  036%=      5-min Rain = 0
KSC1 140233Z 21005KT 10/M04 A2995 RMK A01 T01021042  RH  036%=      5-min Rain = 0
KSC1 140234Z 21005KT 10/M04 A2995 RMK A01 T01021042  RH  036%=      5-min Rain = 0
KSC1 140235Z 21005KT 10/M04 A2995 RMK A01 T01021042  RH  036%=      5-min Rain = 0
KSC1 140236Z 20005KT 10/M04 A2995 RMK A01 T01021042  RH  036%=      5-min Rain = 0
KSC1 140237Z 20005KT 10/M04 A2995 RMK A01 T01021041  RH  036%=      5-min Rain = 0
KSC1 140238Z 20006KT 10/M04 A2995 RMK A01 T01011041  RH  037%=      5-min Rain = 0
KSC1 140239Z 20007KT 10/M04 A2995 RMK A01 T01001041  RH  037%=      5-min Rain = 0
KSC1 140240Z 20008KT 10/M04 A2995 RMK A01 T00991040  RH  037%=      5-min Rain = 0
KSC1 140241Z 20008KT 10/M04 A2995 RMK A01 T00981039  RH  038%=      5-min Rain = 0
KSC1 140242Z 21007KT 10/M04 A2995 RMK A01 T00991040  RH  037%=      5-min Rain = 0
KSC1 140243Z 22006KT 10/M04 A2995 RMK A01 T00991041  RH  037%=      5-min Rain = 0
KSC1 140244Z 21006KT 10/M04 A2995 RMK A01 T01001041  RH  037%=      5-min Rain = 0
KSC1 140245Z 21005KT 10/M04 A2995 RMK A01 T01001042  RH  037%=      5-min Rain = 0
KSC1 140246Z 21005KT 10/M04 A2995 RMK A01 T00991042  RH  037%=      5-min Rain = 0
KSC1 140247Z 21005KT 10/M04 A2995 RMK A01 T00991043  RH  037%=      5-min Rain = 0
KSC1 140248Z 21006KT 10/M04 A2995 RMK A01 T00991043  RH  037%=      5-min Rain = 0
KSC1 140249Z 20005KT 10/M04 A2995 RMK A01 T00981044  RH  036%=      5-min Rain = 0
KSC1 140250Z 19005KT 10/M04 A2995 RMK A01 T00981043  RH  037%=      5-min Rain = 0
KSC1 140251Z 19008KT 10/M04 A2995 RMK A01 T00971043  RH  037%=      5-min Rain = 0
KSC1 140252Z 20009KT 10/M04 A2995 RMK A01 T00981042  RH  037%=      5-min Rain = 0
KSC1 140253Z 20008KT 10/M04 A2995 RMK A01 T00981041  RH  037%=      5-min Rain = 0
KSC1 140254Z 20009KT 10/M04 A2995 RMK A01 T00981040  RH  038%=      5-min Rain = 0
KSC1 140255Z 20010KT 10/M04 A2995 RMK A01 T00981039  RH  038%=      5-min Rain = 0
KSC1 140256Z 20009KT 10/M04 A2995 RMK A01 T00971039  RH  038%=      5-min Rain = 0
KSC1 140257Z 21009KT 10/M04 A2995 RMK A01 T00961040  RH  038%=      5-min Rain = 0
KSC1 140258Z 21008KT 10/M04 A2995 RMK A01 T00961040  RH  038%=      5-min Rain = 0
KSC1 140259Z 21007KT 10/M04 A2995 RMK A01 T00951039  RH  038%=      5-min Rain = 0
KSC1 140300Z 22007KT 10/M04 A2995 RMK A01 T00951040  RH  038%=      5-min Rain = 0
KSC1 140301Z 21006KT 10/M04 A2995 RMK A01 T00951040  RH  038%=      5-min Rain = 0
KSC1 140302Z 20005KT 10/M04 A2995 RMK A01 T00951041  RH  038%=      5-min Rain = 0
KSC1 140303Z 21006KT 10/M04 A2995 RMK A01 T00951041  RH  038%=      5-min Rain = 0
KSC1 140304Z 21006KT 09/M04 A2995 RMK A01 T00941041  RH  038%=      5-min Rain = 0
KSC1 140305Z 22008KT 09/M04 A2995 RMK A01 T00941041  RH  038%=      5-min Rain = 0
KSC1 140306Z 23006KT 09/M04 A2995 RMK A01 T00941041  RH  038%=      5-min Rain = 0
KSC1 140307Z 24006KT 09/M04 A2995 RMK A01 T00941042  RH  038%=      5-min Rain = 0
KSC1 140308Z 26004KT 09/M04 A2995 RMK A01 T00941042  RH  038%=      5-min Rain = 0
KSC1 140309Z 25003KT 09/M04 A2995 RMK A01 T00941042  RH  038%=      5-min Rain = 0
KSC1 140310Z 23004KT 09/M04 A2995 RMK A01 T00941042  RH  038%=      5-min Rain = 0
KSC1 140311Z 22004KT 09/M04 A2995 RMK A01 T00931042  RH  038%=      5-min Rain = 0
KSC1 140312Z 21006KT 09/M04 A2995 RMK A01 T00931042  RH  038%=      5-min Rain = 0
KSC1 140313Z 21006KT 09/M04 A2995 RMK A01 T00931041  RH  039%=      5-min Rain = 0
KSC1 140314Z 21007KT 09/M04 A2994 RMK A01 T00921042  RH  039%=      5-min Rain = 0
KSC1 140315Z 22006KT 09/M04 A2994 RMK A01 T00921042  RH  039%=      5-min Rain = 0
KSC1 140316Z 22006KT 09/M04 A2994 RMK A01 T00921041  RH  039%=      5-min Rain = 0
KSC1 140317Z 21006KT 09/M04 A2994 RMK A01 T00911041  RH  039%=      5-min Rain = 0
KSC1 140318Z 21008KT 09/M04 A2994 RMK A01 T00891041  RH  040%=      5-min Rain = 0
KSC1 140319Z 22007KT 09/M04 A2994 RMK A01 T00891041  RH  040%=      5-min Rain = 0
KSC1 140320Z 22007KT 09/M04 A2994 RMK A01 T00891040  RH  040%=      5-min Rain = 0
KSC1 140321Z 22007KT 09/M04 A2994 RMK A01 T00891041  RH  040%=      5-min Rain = 0
KSC1 140322Z 22006KT 09/M04 A2994 RMK A01 T00881041  RH  040%=      5-min Rain = 0
KSC1 140323Z 22007KT 09/M04 A2994 RMK A01 T00881041  RH  040%=      5-min Rain = 0
KSC1 140324Z 22007KT 09/M04 A2994 RMK A01 T00881042  RH  039%=      5-min Rain = 0
KSC1 140325Z 22008G13KT 09/M04 A2994 RMK A01 T00901043  RH  039%=      5-min Rain = 0
KSC1 140326Z 22008KT 09/M04 A2994 RMK A01 T00911043  RH  038%=      5-min Rain = 0
KSC1 140327Z 22008KT 09/M04 A2994 RMK A01 T00921043  RH  038%=      5-min Rain = 0
KSC1 140328Z 22008KT 09/M04 A2994 RMK A01 T00921043  RH  038%=      5-min Rain = 0
KSC1 140329Z 22007KT 09/M04 A2994 RMK A01 T00921043  RH  038%=      5-min Rain = 0
KSC1 140330Z 22009KT 09/M04 A2994 RMK A01 T00911043  RH  038%=      5-min Rain = 0
KSC1 140331Z 22008G14KT 09/M04 A2994 RMK A01 T00911044  RH  038%=      5-min Rain = 0
KSC1 140332Z 22008KT 09/M04 A2994 RMK A01 T00921044  RH  038%=      5-min Rain = 0
KSC1 140333Z 22008KT 09/M05 A2994 RMK A01 T00931045  RH  038%=      5-min Rain = 0
KSC1 140334Z 22007KT 09/M05 A2994 RMK A01 T00931045  RH  037%=      5-min Rain = 0
KSC1 140335Z 22008KT 09/M05 A2994 RMK A01 T00931045  RH  037%=      5-min Rain = 0
KSC1 140336Z 22008KT 09/M05 A2994 RMK A01 T00941047  RH  037%=      5-min Rain = 0
KSC1 140337Z 22008KT 10/M05 A2994 RMK A01 T00951047  RH  036%=      5-min Rain = 0
KSC1 140338Z 22008KT 10/M05 A2994 RMK A01 T00961048  RH  036%=      5-min Rain = 0
KSC1 140339Z 22009KT 10/M05 A2994 RMK A01 T00971049  RH  036%=      5-min Rain = 0
KSC1 140340Z 22007KT 10/M05 A2993 RMK A01 T00981049  RH  035%=      5-min Rain = 0
KSC1 140341Z 22008KT 10/M05 A2993 RMK A01 T00981048  RH  035%=      5-min Rain = 0
KSC1 140342Z 22006KT 10/M05 A2993 RMK A01 T00971050  RH  035%=      5-min Rain = 0
KSC1 140343Z 21008KT 10/M05 A2993 RMK A01 T00971050  RH  035%=      5-min Rain = 0
KSC1 140344Z 22008KT 10/M05 A2993 RMK A01 T00971051  RH  035%=      5-min Rain = 0
KSC1 140345Z 22009KT 10/M05 A2993 RMK A01 T00991051  RH  035%=      5-min Rain = 0
KSC1 140346Z 22009KT 10/M05 A2993 RMK A01 T00991051  RH  034%=      5-min Rain = 0
KSC1 140347Z 22009KT 10/M05 A2993 RMK A01 T00991051  RH  035%=      5-min Rain = 0
KSC1 140348Z 22010G15KT 10/M05 A2993 RMK A01 T00981051  RH  035%=      5-min Rain = 0
KSC1 140349Z 22009KT 10/M05 A2993 RMK A01 T00971050  RH  035%=      5-min Rain = 0
KSC1 140350Z 22010KT 10/M05 A2993 RMK A01 T00951050  RH  036%=      5-min Rain = 0
KSC1 140351Z 22012KT 09/M05 A2993 RMK A01 T00941050  RH  036%=      5-min Rain = 0
KSC1 140352Z 22009KT 09/M05 A2993 RMK A01 T00941050  RH  036%=      5-min Rain = 0
KSC1 140353Z 22009KT 09/M05 A2993 RMK A01 T00931049  RH  037%=      5-min Rain = 0
KSC1 140354Z 22011KT 09/M05 A2993 RMK A01 T00901048  RH  037%=      5-min Rain = 0
KSC1 140355Z 22012KT 09/M05 A2993 RMK A01 T00901048  RH  037%=      5-min Rain = 0
KSC1 140356Z 21011KT 09/M05 A2993 RMK A01 T00891048  RH  037%=      5-min Rain = 0
KSC1 140357Z 21011KT 09/M05 A2993 RMK A01 T00891048  RH  038%=      5-min Rain = 0
KSC1 140358Z 21011KT 09/M05 A2993 RMK A01 T00881048  RH  038%=      5-min Rain = 0
KSC1 140359Z 21012G17KT 09/M05 A2993 RMK A01 T00881049  RH  038%=      5-min Rain = 0
KSC1 140400Z 21010KT 09/M05 A2993 RMK A01 T00891049  RH  037%=      5-min Rain = 0
KSC1 140401Z 21011KT 09/M05 A2993 RMK A01 T00891049  RH  037%=      5-min Rain = 0
KSC1 140402Z 21012KT 09/M05 A2993 RMK A01 T00891049  RH  037%=      5-min Rain = 0
KSC1 140403Z 21011KT 09/M05 A2993 RMK A01 T00891050  RH  037%=      5-min Rain = 0
KSC1 140404Z 21010KT 09/M05 A2993 RMK A01 T00891050  RH  037%=      5-min Rain = 0
KSC1 140405Z 21010KT 09/M05 A2992 RMK A01 T00901050  RH  037%=      5-min Rain = 0
KSC1 140406Z 21011KT 09/M05 A2992 RMK A01 T00901051  RH  037%=      5-min Rain = 0
KSC1 140407Z 21011KT 09/M05 A2992 RMK A01 T00901051  RH  037%=      5-min Rain = 0
KSC1 140408Z 21012KT 09/M05 A2992 RMK A01 T00901052  RH  036%=      5-min Rain = 0
KSC1 140409Z 21011KT 09/M05 A2992 RMK A01 T00911053  RH  036%=      5-min Rain = 0
KSC1 140410Z 21010KT 09/M05 A2992 RMK A01 T00921053  RH  035%=      5-min Rain = 0
KSC1 140411Z 21010KT 09/M05 A2992 RMK A01 T00921053  RH  035%=      5-min Rain = 0
KSC1 140412Z 21010KT 09/M05 A2992 RMK A01 T00931053  RH  035%=      5-min Rain = 0
KSC1 140413Z 21011KT 09/M05 A2992 RMK A01 T00931054  RH  035%=      5-min Rain = 0
KSC1 140414Z 21010KT 09/M06 A2992 RMK A01 T00931055  RH  035%=      5-min Rain = 0
KSC1 140415Z 21010KT 09/M05 A2992 RMK A01 T00931054  RH  035%=      5-min Rain = 0
KSC1 140416Z 21010KT 09/M06 A2992 RMK A01 T00931055  RH  035%=      5-min Rain = 0
KSC1 140417Z 21010KT 09/M06 A2992 RMK A01 T00931055  RH  035%=      5-min Rain = 0
KSC1 140418Z 21010KT 09/M06 A2992 RMK A01 T00931055  RH  034%=      5-min Rain = 0
KSC1 140419Z 21010KT 09/M06 A2992 RMK A01 T00931056  RH  034%=      5-min Rain = 0
KSC1 140420Z 21010KT 09/M06 A2992 RMK A01 T00931056  RH  034%=      5-min Rain = 0
KSC1 140421Z 21009KT 09/M06 A2992 RMK A01 T00941057  RH  034%=      5-min Rain = 0
KSC1 140422Z 21010KT 10/M06 A2992 RMK A01 T00951057  RH  034%=      5-min Rain = 0
KSC1 140423Z 21009KT 10/M06 A2992 RMK A01 T00951056  RH  034%=      5-min Rain = 0
KSC1 140424Z 21010KT 09/M06 A2992 RMK A01 T00931056  RH  035%=      5-min Rain = 0
KSC1 140425Z 21010KT 09/M06 A2992 RMK A01 T00921056  RH  035%=      5-min Rain = 0
KSC1 140426Z 21011KT 09/M06 A2992 RMK A01 T00931057  RH  034%=      5-min Rain = 0
KSC1 140427Z 20011KT 09/M06 A2992 RMK A01 T00941057  RH  034%=      5-min Rain = 0
KSC1 140428Z 20011KT 09/M06 A2992 RMK A01 T00941057  RH  034%=      5-min Rain = 0
KSC1 140429Z 21012KT 09/M06 A2992 RMK A01 T00941058  RH  034%=      5-min Rain = 0
KSC1 140430Z 20010KT 10/M06 A2992 RMK A01 T00951058  RH  034%=      5-min Rain = 0
KSC1 140431Z 20012KT 10/M06 A2991 RMK A01 T00951058  RH  034%=      5-min Rain = 0
KSC1 140432Z 20010KT 10/M06 A2992 RMK A01 T00951059  RH  033%=      5-min Rain = 0
KSC1 140433Z 20010KT 10/M06 A2992 RMK A01 T00951058  RH  033%=      5-min Rain = 0
KSC1 140434Z 20010KT 10/M06 A2992 RMK A01 T00951059  RH  033%=      5-min Rain = 0
KSC1 140435Z 20011KT 10/M06 A2992 RMK A01 T00951058  RH  033%=      5-min Rain = 0
KSC1 140436Z 20012KT 09/M06 A2992 RMK A01 T00941059  RH  033%=      5-min Rain = 0
KSC1 140437Z 20012KT 10/M06 A2992 RMK A01 T00951059  RH  033%=      5-min Rain = 0
KSC1 140438Z 20011KT 10/M06 A2992 RMK A01 T00961060  RH  033%=      5-min Rain = 0
KSC1 140439Z 20012KT 10/M06 A2992 RMK A01 T00971060  RH  032%=      5-min Rain = 0
KSC1 140440Z 20011KT 10/M06 A2992 RMK A01 T00971061  RH  032%=      5-min Rain = 0
KSC1 140441Z 21010KT 10/M06 A2992 RMK A01 T00971061  RH  032%=      5-min Rain = 0
KSC1 140442Z 20011KT 10/M06 A2991 RMK A01 T00971061  RH  032%=      5-min Rain = 0
KSC1 140443Z 21010KT 10/M06 A2991 RMK A01 T00971062  RH  032%=      5-min Rain = 0
KSC1 140444Z 21010KT 10/M06 A2991 RMK A01 T00981062  RH  032%=      5-min Rain = 0
KSC1 140445Z 21010KT 10/M06 A2991 RMK A01 T00991063  RH  031%=      5-min Rain = 0
KSC1 140446Z 21011KT 10/M06 A2991 RMK A01 T00991063  RH  031%=      5-min Rain = 0
KSC1 140447Z 21010KT 10/M06 A2991 RMK A01 T00981062  RH  032%=      5-min Rain = 0
KSC1 140448Z 21012KT 10/M06 A2991 RMK A01 T00971061  RH  032%=      5-min Rain = 0
KSC1 140449Z 21011KT 10/M06 A2991 RMK A01 T00961061  RH  033%=      5-min Rain = 0
KSC1 140450Z 21011KT 10/M06 A2991 RMK A01 T00951060  RH  033%=      5-min Rain = 0
KSC1 140451Z 21011KT 09/M06 A2991 RMK A01 T00941060  RH  033%=      5-min Rain = 0
KSC1 140452Z 21011KT 09/M06 A2991 RMK A01 T00941060  RH  033%=      5-min Rain = 0
KSC1 140453Z 21012KT 09/M06 A2991 RMK A01 T00931060  RH  033%=      5-min Rain = 0
KSC1 140454Z 21011KT 09/M06 A2991 RMK A01 T00931060  RH  033%=      5-min Rain = 0
KSC1 140455Z 21010KT 09/M06 A2991 RMK A01 T00931061  RH  033%=      5-min Rain = 0
KSC1 140456Z 19008KT 09/M06 A2991 RMK A01 T00931060  RH  033%=      5-min Rain = 0
KSC1 140457Z 20009KT 09/M06 A2991 RMK A01 T00911058  RH  034%=      5-min Rain = 0
KSC1 140458Z 21009KT 09/M06 A2991 RMK A01 T00871057  RH  035%=      5-min Rain = 0
KSC1 140459Z 21010KT 09/M06 A2991 RMK A01 T00861057  RH  036%=      5-min Rain = 0
KSC1 140500Z 21010KT 09/M06 A2991 RMK A01 T00861058  RH  036%=      5-min Rain = 0
KSC1 140501Z 21010KT 09/M06 A2991 RMK A01 T00861058  RH  036%=      5-min Rain = 0
KSC1 140502Z 21010KT 09/M06 A2991 RMK A01 T00871058  RH  035%=      5-min Rain = 0
KSC1 140503Z 21011KT 09/M06 A2991 RMK A01 T00871058  RH  035%=      5-min Rain = 0
KSC1 140504Z 21010KT 09/M06 A2991 RMK A01 T00871058  RH  035%=      5-min Rain = 0
KSC1 140505Z 21010KT 09/M06 A2991 RMK A01 T00881058  RH  035%=      5-min Rain = 0
KSC1 140506Z 21011KT 09/M06 A2991 RMK A01 T00871058  RH  035%=      5-min Rain = 0
KSC1 140507Z 20011KT 09/M06 A2991 RMK A01 T00871059  RH  035%=      5-min Rain = 0
KSC1 140508Z 20011KT 09/M06 A2991 RMK A01 T00871059  RH  035%=      5-min Rain = 0
KSC1 140509Z 21009KT 09/M06 A2991 RMK A01 T00881059  RH  035%=      5-min Rain = 0
KSC1 140510Z 20011KT 09/M06 A2991 RMK A01 T00881059  RH  035%=      5-min Rain = 0
KSC1 140511Z 20011KT 09/M06 A2991 RMK A01 T00881060  RH  034%=      5-min Rain = 0
KSC1 140512Z 20011KT 09/M06 A2991 RMK A01 T00891061  RH  034%=      5-min Rain = 0
KSC1 140513Z 20012KT 09/M06 A2991 RMK A01 T00891060  RH  034%=      5-min Rain = 0
KSC1 140514Z 21011KT 09/M06 A2991 RMK A01 T00891061  RH  034%=      5-min Rain = 0
KSC1 140515Z 20010G15KT 09/M06 A2991 RMK A01 T00891060  RH  034%=      5-min Rain = 0
KSC1 140516Z 21010KT 09/M06 A2991 RMK A01 T00891061  RH  034%=      5-min Rain = 0
KSC1 140517Z 20010KT 09/M06 A2991 RMK A01 T00891062  RH  034%=      5-min Rain = 0
KSC1 140518Z 20010KT 09/M06 A2991 RMK A01 T00891061  RH  034%=      5-min Rain = 0
KSC1 140519Z 21010KT 09/M06 A299 RMK A01 T00891062  RH  034%=      5-min Rain = 0
KSC1 140520Z 20010KT 09/M06 A299 RMK A01 T00901063  RH  033%=      5-min Rain = 0
KSC1 140521Z 21010KT 09/M06 A299 RMK A01 T00901063  RH  033%=      5-min Rain = 0
KSC1 140522Z 21011KT 09/M06 A299 RMK A01 T00901063  RH  033%=      5-min Rain = 0
KSC1 140523Z 21010KT 09/M06 A299 RMK A01 T00901064  RH  033%=      5-min Rain = 0
KSC1 140524Z 21011KT 09/M06 A299 RMK A01 T00911064  RH  033%=      5-min Rain = 0
KSC1 140525Z 21011KT 09/M06 A299 RMK A01 T00921064  RH  033%=      5-min Rain = 0
KSC1 140526Z 21010KT 09/M06 A299 RMK A01 T00931064  RH  032%=      5-min Rain = 0
KSC1 140527Z 21010KT 09/M06 A299 RMK A01 T00931064  RH  032%=      5-min Rain = 0
KSC1 140528Z 21010KT 09/M07 A299 RMK A01 T00931065  RH  032%=      5-min Rain = 0
KSC1 140529Z 20009KT 09/M07 A299 RMK A01 T00931065  RH  032%=      5-min Rain = 0
KSC1 140530Z 20009KT 09/M06 A299 RMK A01 T00921064  RH  033%=      5-min Rain = 0
KSC1 140531Z 20010KT 09/M06 A299 RMK A01 T00921064  RH  033%=      5-min Rain = 0
KSC1 140532Z 20010KT 09/M07 A2991 RMK A01 T00921065  RH  032%=      5-min Rain = 0
KSC1 140533Z 21010KT 09/M07 A2991 RMK A01 T00931065  RH  032%=      5-min Rain = 0
KSC1 140534Z 21011KT 09/M06 A2991 RMK A01 T00921064  RH  033%=      5-min Rain = 0
KSC1 140535Z 21010KT 09/M06 A2991 RMK A01 T00921064  RH  033%=      5-min Rain = 0
KSC1 140536Z 21010KT 09/M06 A2991 RMK A01 T00921064  RH  033%=      5-min Rain = 0
KSC1 140537Z 21010KT 09/M06 A2991 RMK A01 T00921064  RH  033%=      5-min Rain = 0
KSC1 140538Z 21009KT 09/M06 A2991 RMK A01 T00921064  RH  033%=      5-min Rain = 0
KSC1 140539Z 21009KT 09/M06 A2991 RMK A01 T00921064  RH  033%=      5-min Rain = 0
KSC1 140540Z 21010KT 09/M06 A2991 RMK A01 T00911064  RH  033%=      5-min Rain = 0
KSC1 140541Z 21009KT 09/M06 A2991 RMK A01 T00901063  RH  033%=      5-min Rain = 0
KSC1 140542Z 21008KT 09/M06 A2991 RMK A01 T00901063  RH  033%=      5-min Rain = 0
KSC1 140543Z 21009KT 09/M06 A2991 RMK A01 T00891063  RH  034%=      5-min Rain = 0
KSC1 140544Z 21006KT 09/M06 A2991 RMK A01 T00881063  RH  034%=      5-min Rain = 0
KSC1 140545Z 19003KT 09/M06 A2991 RMK A01 T00871062  RH  034%=      5-min Rain = 0
KSC1 140546Z 20004KT 08/M06 A2991 RMK A01 T00841062  RH  035%=      5-min Rain = 0
KSC1 140547Z 19005KT 08/M06 A2991 RMK A01 T00821061  RH  036%=      5-min Rain = 0
KSC1 140548Z 20006KT 08/M06 A2991 RMK A01 T00801060  RH  036%=      5-min Rain = 0
KSC1 140549Z 20006KT 08/M06 A2991 RMK A01 T00791060  RH  037%=      5-min Rain = 0
KSC1 140550Z 21005KT 08/M06 A2991 RMK A01 T00781059  RH  037%=      5-min Rain = 0
KSC1 140551Z 21005KT 08/M06 A2991 RMK A01 T00771060  RH  037%=      5-min Rain = 0
KSC1 140552Z 21005KT 08/M06 A2991 RMK A01 T00781061  RH  037%=      5-min Rain = 0
KSC1 140553Z 21004KT 08/M06 A2991 RMK A01 T00791061  RH  036%=      5-min Rain = 0
KSC1 140554Z 21004KT 08/M06 A2991 RMK A01 T00791061  RH  036%=      5-min Rain = 0
KSC1 140555Z 21007KT 08/M06 A2991 RMK A01 T00801062  RH  036%=      5-min Rain = 0
KSC1 140556Z 21008KT 08/M06 A2991 RMK A01 T00811062  RH  036%=      5-min Rain = 0
KSC1 140557Z 22006KT 08/M06 A2991 RMK A01 T00821062  RH  035%=      5-min Rain = 0
KSC1 140558Z 22006KT 08/M06 A2991 RMK A01 T00841062  RH  035%=      5-min Rain = 0
KSC1 140559Z 21008KT 08/M06 A2991 RMK A01 T00841062  RH  035%=      5-min Rain = 0

Page generated in 0.1392 seconds.